<?xml version="1.0" encoding="UTF-8" standalone="no" ?>
<gpx xmlns="http://www.topografix.com/GPX/1/1" xmlns:xsi="http://www.w3.org/2001/XMLSchema-instance" xsi:schemaLocation="http://www.topografix.com/GPX/1/1 http://www.topografix.com/GPX/1/1/gpx.xsd" version="1.1" creator="VisuGPX - https://www.visugpx.com">
  <metadata>
    <name>Chemin Faisant à Sainte Eulalie 2017</name>
    <desc><![CDATA[Balade urbaine et champêtre sans difficulté.]]></desc>
  </metadata>
  <trk>
    <name><![CDATA[2017-02-12 12:04:47]]></name>
    <trkseg>
      <trkpt lat="44.91029" lon="-0.47263">
        <ele>27.05</ele>
        <time>2017-02-12T07:57:37Z</time>
      </trkpt>
      <trkpt lat="44.91029" lon="-0.47262">
        <ele>27.05</ele>
        <time>2017-02-12T07:57:58Z</time>
      </trkpt>
      <trkpt lat="44.91029" lon="-0.47264">
        <ele>26.57</ele>
        <time>2017-02-12T07:58:10Z</time>
      </trkpt>
      <trkpt lat="44.91028" lon="-0.47266">
        <ele>26.09</ele>
        <time>2017-02-12T07:58:30Z</time>
      </trkpt>
      <trkpt lat="44.91028" lon="-0.47265">
        <ele>26.09</ele>
        <time>2017-02-12T07:58:54Z</time>
      </trkpt>
      <trkpt lat="44.9103" lon="-0.47265">
        <ele>26.09</ele>
        <time>2017-02-12T07:59:14Z</time>
      </trkpt>
      <trkpt lat="44.91031" lon="-0.47263">
        <ele>26.09</ele>
        <time>2017-02-12T07:59:33Z</time>
      </trkpt>
      <trkpt lat="44.91032" lon="-0.47264">
        <ele>26.09</ele>
        <time>2017-02-12T07:59:56Z</time>
      </trkpt>
      <trkpt lat="44.91032" lon="-0.47265">
        <ele>26.09</ele>
        <time>2017-02-12T08:00:18Z</time>
      </trkpt>
      <trkpt lat="44.91031" lon="-0.47265">
        <ele>26.09</ele>
        <time>2017-02-12T08:00:41Z</time>
      </trkpt>
      <trkpt lat="44.91029" lon="-0.47265">
        <ele>26.09</ele>
        <time>2017-02-12T08:01:11Z</time>
      </trkpt>
      <trkpt lat="44.91029" lon="-0.47264">
        <ele>26.09</ele>
        <time>2017-02-12T08:01:37Z</time>
      </trkpt>
      <trkpt lat="44.91028" lon="-0.47266">
        <ele>26.09</ele>
        <time>2017-02-12T08:02:01Z</time>
      </trkpt>
      <trkpt lat="44.91025" lon="-0.47275">
        <ele>26.09</ele>
        <time>2017-02-12T08:02:14Z</time>
      </trkpt>
      <trkpt lat="44.91019" lon="-0.47286">
        <ele>27.53</ele>
        <time>2017-02-12T08:02:27Z</time>
      </trkpt>
      <trkpt lat="44.91018" lon="-0.4729">
        <ele>27.53</ele>
        <time>2017-02-12T08:02:45Z</time>
      </trkpt>
      <trkpt lat="44.9101" lon="-0.47301">
        <ele>27.53</ele>
        <time>2017-02-12T08:03:02Z</time>
      </trkpt>
      <trkpt lat="44.91008" lon="-0.47306">
        <ele>27.53</ele>
        <time>2017-02-12T08:03:07Z</time>
      </trkpt>
      <trkpt lat="44.90995" lon="-0.47309">
        <ele>28.5</ele>
        <time>2017-02-12T08:03:22Z</time>
      </trkpt>
      <trkpt lat="44.90989" lon="-0.47306">
        <ele>28.98</ele>
        <time>2017-02-12T08:03:31Z</time>
      </trkpt>
      <trkpt lat="44.90974" lon="-0.47296">
        <ele>30.42</ele>
        <time>2017-02-12T08:03:47Z</time>
      </trkpt>
      <trkpt lat="44.9096" lon="-0.47284">
        <ele>31.86</ele>
        <time>2017-02-12T08:04:03Z</time>
      </trkpt>
      <trkpt lat="44.90946" lon="-0.47272">
        <ele>33.3</ele>
        <time>2017-02-12T08:04:19Z</time>
      </trkpt>
      <trkpt lat="44.9093" lon="-0.47255">
        <ele>34.74</ele>
        <time>2017-02-12T08:04:35Z</time>
      </trkpt>
      <trkpt lat="44.90916" lon="-0.47241">
        <ele>35.23</ele>
        <time>2017-02-12T08:04:49Z</time>
      </trkpt>
      <trkpt lat="44.90904" lon="-0.47227">
        <ele>35.71</ele>
        <time>2017-02-12T08:05:02Z</time>
      </trkpt>
      <trkpt lat="44.90889" lon="-0.47217">
        <ele>35.71</ele>
        <time>2017-02-12T08:05:15Z</time>
      </trkpt>
      <trkpt lat="44.90875" lon="-0.47205">
        <ele>36.19</ele>
        <time>2017-02-12T08:05:31Z</time>
      </trkpt>
      <trkpt lat="44.90856" lon="-0.47199">
        <ele>36.19</ele>
        <time>2017-02-12T08:05:48Z</time>
      </trkpt>
      <trkpt lat="44.90838" lon="-0.47202">
        <ele>36.19</ele>
        <time>2017-02-12T08:06:04Z</time>
      </trkpt>
      <trkpt lat="44.90823" lon="-0.47204">
        <ele>34.74</ele>
        <time>2017-02-12T08:06:18Z</time>
      </trkpt>
      <trkpt lat="44.90819" lon="-0.47205">
        <ele>34.74</ele>
        <time>2017-02-12T08:06:21Z</time>
      </trkpt>
      <trkpt lat="44.90802" lon="-0.47202">
        <ele>34.74</ele>
        <time>2017-02-12T08:06:38Z</time>
      </trkpt>
      <trkpt lat="44.90795" lon="-0.47206">
        <ele>34.74</ele>
        <time>2017-02-12T08:06:46Z</time>
      </trkpt>
      <trkpt lat="44.9078" lon="-0.47218">
        <ele>33.78</ele>
        <time>2017-02-12T08:07:01Z</time>
      </trkpt>
      <trkpt lat="44.90771" lon="-0.47229">
        <ele>33.78</ele>
        <time>2017-02-12T08:07:11Z</time>
      </trkpt>
      <trkpt lat="44.90765" lon="-0.47238">
        <ele>33.78</ele>
        <time>2017-02-12T08:07:18Z</time>
      </trkpt>
      <trkpt lat="44.90759" lon="-0.47247">
        <ele>33.3</ele>
        <time>2017-02-12T08:07:25Z</time>
      </trkpt>
      <trkpt lat="44.90756" lon="-0.47255">
        <ele>33.3</ele>
        <time>2017-02-12T08:07:30Z</time>
      </trkpt>
      <trkpt lat="44.90746" lon="-0.47247">
        <ele>33.3</ele>
        <time>2017-02-12T08:07:43Z</time>
      </trkpt>
      <trkpt lat="44.90728" lon="-0.47235">
        <ele>32.34</ele>
        <time>2017-02-12T08:08:01Z</time>
      </trkpt>
      <trkpt lat="44.90706" lon="-0.47223">
        <ele>30.9</ele>
        <time>2017-02-12T08:08:18Z</time>
      </trkpt>
      <trkpt lat="44.90689" lon="-0.47211">
        <ele>29.94</ele>
        <time>2017-02-12T08:08:33Z</time>
      </trkpt>
      <trkpt lat="44.90675" lon="-0.472">
        <ele>28.5</ele>
        <time>2017-02-12T08:08:46Z</time>
      </trkpt>
      <trkpt lat="44.9066" lon="-0.47188">
        <ele>27.05</ele>
        <time>2017-02-12T08:09:01Z</time>
      </trkpt>
      <trkpt lat="44.90644" lon="-0.47178">
        <ele>26.09</ele>
        <time>2017-02-12T08:09:15Z</time>
      </trkpt>
      <trkpt lat="44.90627" lon="-0.47165">
        <ele>24.65</ele>
        <time>2017-02-12T08:09:31Z</time>
      </trkpt>
      <trkpt lat="44.90609" lon="-0.47153">
        <ele>24.17</ele>
        <time>2017-02-12T08:09:48Z</time>
      </trkpt>
      <trkpt lat="44.90596" lon="-0.47145">
        <ele>23.69</ele>
        <time>2017-02-12T08:10:02Z</time>
      </trkpt>
      <trkpt lat="44.90582" lon="-0.47135">
        <ele>23.69</ele>
        <time>2017-02-12T08:10:18Z</time>
      </trkpt>
      <trkpt lat="44.90568" lon="-0.47125">
        <ele>25.13</ele>
        <time>2017-02-12T08:10:32Z</time>
      </trkpt>
      <trkpt lat="44.90557" lon="-0.47115">
        <ele>25.61</ele>
        <time>2017-02-12T08:10:45Z</time>
      </trkpt>
      <trkpt lat="44.90543" lon="-0.47108">
        <ele>25.61</ele>
        <time>2017-02-12T08:10:58Z</time>
      </trkpt>
      <trkpt lat="44.90528" lon="-0.47096">
        <ele>26.09</ele>
        <time>2017-02-12T08:11:14Z</time>
      </trkpt>
      <trkpt lat="44.90513" lon="-0.47087">
        <ele>26.57</ele>
        <time>2017-02-12T08:11:29Z</time>
      </trkpt>
      <trkpt lat="44.90497" lon="-0.47076">
        <ele>27.05</ele>
        <time>2017-02-12T08:11:45Z</time>
      </trkpt>
      <trkpt lat="44.90481" lon="-0.47067">
        <ele>28.5</ele>
        <time>2017-02-12T08:12:01Z</time>
      </trkpt>
      <trkpt lat="44.90464" lon="-0.47055">
        <ele>29.46</ele>
        <time>2017-02-12T08:12:18Z</time>
      </trkpt>
      <trkpt lat="44.90456" lon="-0.4705">
        <ele>30.42</ele>
        <time>2017-02-12T08:12:35Z</time>
      </trkpt>
      <trkpt lat="44.90443" lon="-0.47041">
        <ele>31.38</ele>
        <time>2017-02-12T08:12:51Z</time>
      </trkpt>
      <trkpt lat="44.90429" lon="-0.47026">
        <ele>32.82</ele>
        <time>2017-02-12T08:13:09Z</time>
      </trkpt>
      <trkpt lat="44.90416" lon="-0.47011">
        <ele>32.82</ele>
        <time>2017-02-12T08:13:25Z</time>
      </trkpt>
      <trkpt lat="44.90408" lon="-0.46999">
        <ele>33.3</ele>
        <time>2017-02-12T08:13:36Z</time>
      </trkpt>
      <trkpt lat="44.90412" lon="-0.46972">
        <ele>33.78</ele>
        <time>2017-02-12T08:13:52Z</time>
      </trkpt>
      <trkpt lat="44.90417" lon="-0.46953">
        <ele>33.78</ele>
        <time>2017-02-12T08:14:06Z</time>
      </trkpt>
      <trkpt lat="44.90417" lon="-0.46946">
        <ele>32.34</ele>
        <time>2017-02-12T08:14:13Z</time>
      </trkpt>
      <trkpt lat="44.90414" lon="-0.46935">
        <ele>32.34</ele>
        <time>2017-02-12T08:14:24Z</time>
      </trkpt>
      <trkpt lat="44.90419" lon="-0.46915">
        <ele>31.86</ele>
        <time>2017-02-12T08:14:38Z</time>
      </trkpt>
      <trkpt lat="44.90421" lon="-0.46911">
        <ele>31.86</ele>
        <time>2017-02-12T08:14:41Z</time>
      </trkpt>
      <trkpt lat="44.90426" lon="-0.46886">
        <ele>31.38</ele>
        <time>2017-02-12T08:14:57Z</time>
      </trkpt>
      <trkpt lat="44.9043" lon="-0.46868">
        <ele>31.38</ele>
        <time>2017-02-12T08:15:10Z</time>
      </trkpt>
      <trkpt lat="44.90435" lon="-0.46845">
        <ele>31.38</ele>
        <time>2017-02-12T08:15:24Z</time>
      </trkpt>
      <trkpt lat="44.90442" lon="-0.46824">
        <ele>31.38</ele>
        <time>2017-02-12T08:15:37Z</time>
      </trkpt>
      <trkpt lat="44.9045" lon="-0.46808">
        <ele>31.38</ele>
        <time>2017-02-12T08:15:49Z</time>
      </trkpt>
      <trkpt lat="44.90456" lon="-0.4679">
        <ele>31.38</ele>
        <time>2017-02-12T08:16:03Z</time>
      </trkpt>
      <trkpt lat="44.90462" lon="-0.46774">
        <ele>30.9</ele>
        <time>2017-02-12T08:16:12Z</time>
      </trkpt>
      <trkpt lat="44.90454" lon="-0.4675">
        <ele>29.94</ele>
        <time>2017-02-12T08:16:26Z</time>
      </trkpt>
      <trkpt lat="44.90438" lon="-0.46733">
        <ele>29.94</ele>
        <time>2017-02-12T08:16:40Z</time>
      </trkpt>
      <trkpt lat="44.90431" lon="-0.46727">
        <ele>28.5</ele>
        <time>2017-02-12T08:16:47Z</time>
      </trkpt>
      <trkpt lat="44.90419" lon="-0.46714">
        <ele>28.5</ele>
        <time>2017-02-12T08:17:00Z</time>
      </trkpt>
      <trkpt lat="44.90405" lon="-0.46699">
        <ele>28.02</ele>
        <time>2017-02-12T08:17:15Z</time>
      </trkpt>
      <trkpt lat="44.90393" lon="-0.46685">
        <ele>27.05</ele>
        <time>2017-02-12T08:17:29Z</time>
      </trkpt>
      <trkpt lat="44.9038" lon="-0.46667">
        <ele>26.09</ele>
        <time>2017-02-12T08:17:44Z</time>
      </trkpt>
      <trkpt lat="44.90367" lon="-0.4665">
        <ele>25.13</ele>
        <time>2017-02-12T08:18:00Z</time>
      </trkpt>
      <trkpt lat="44.90351" lon="-0.46633">
        <ele>24.65</ele>
        <time>2017-02-12T08:18:16Z</time>
      </trkpt>
      <trkpt lat="44.9035" lon="-0.46631">
        <ele>24.65</ele>
        <time>2017-02-12T08:18:18Z</time>
      </trkpt>
      <trkpt lat="44.90347" lon="-0.46628">
        <ele>24.65</ele>
        <time>2017-02-12T08:18:21Z</time>
      </trkpt>
      <trkpt lat="44.90335" lon="-0.46609">
        <ele>23.69</ele>
        <time>2017-02-12T08:18:37Z</time>
      </trkpt>
      <trkpt lat="44.90325" lon="-0.46591">
        <ele>23.69</ele>
        <time>2017-02-12T08:18:51Z</time>
      </trkpt>
      <trkpt lat="44.90322" lon="-0.46582">
        <ele>23.69</ele>
        <time>2017-02-12T08:18:57Z</time>
      </trkpt>
      <trkpt lat="44.90316" lon="-0.46566">
        <ele>23.21</ele>
        <time>2017-02-12T08:19:09Z</time>
      </trkpt>
      <trkpt lat="44.90313" lon="-0.46566">
        <ele>23.21</ele>
        <time>2017-02-12T08:19:12Z</time>
      </trkpt>
      <trkpt lat="44.90305" lon="-0.46572">
        <ele>23.21</ele>
        <time>2017-02-12T08:19:18Z</time>
      </trkpt>
      <trkpt lat="44.90286" lon="-0.46589">
        <ele>23.21</ele>
        <time>2017-02-12T08:19:34Z</time>
      </trkpt>
      <trkpt lat="44.90271" lon="-0.46607">
        <ele>22.73</ele>
        <time>2017-02-12T08:19:50Z</time>
      </trkpt>
      <trkpt lat="44.90257" lon="-0.46625">
        <ele>22.25</ele>
        <time>2017-02-12T08:20:07Z</time>
      </trkpt>
      <trkpt lat="44.90244" lon="-0.46638">
        <ele>22.25</ele>
        <time>2017-02-12T08:20:22Z</time>
      </trkpt>
      <trkpt lat="44.90231" lon="-0.46648">
        <ele>22.25</ele>
        <time>2017-02-12T08:20:37Z</time>
      </trkpt>
      <trkpt lat="44.90221" lon="-0.46659">
        <ele>21.77</ele>
        <time>2017-02-12T08:20:50Z</time>
      </trkpt>
      <trkpt lat="44.9022" lon="-0.46661">
        <ele>21.77</ele>
        <time>2017-02-12T08:20:51Z</time>
      </trkpt>
      <trkpt lat="44.90209" lon="-0.46672">
        <ele>21.77</ele>
        <time>2017-02-12T08:21:07Z</time>
      </trkpt>
      <trkpt lat="44.90196" lon="-0.46685">
        <ele>21.29</ele>
        <time>2017-02-12T08:21:23Z</time>
      </trkpt>
      <trkpt lat="44.90185" lon="-0.46697">
        <ele>21.29</ele>
        <time>2017-02-12T08:21:35Z</time>
      </trkpt>
      <trkpt lat="44.90183" lon="-0.46701">
        <ele>21.29</ele>
        <time>2017-02-12T08:21:39Z</time>
      </trkpt>
      <trkpt lat="44.90177" lon="-0.46713">
        <ele>20.81</ele>
        <time>2017-02-12T08:21:50Z</time>
      </trkpt>
      <trkpt lat="44.90175" lon="-0.46736">
        <ele>20.81</ele>
        <time>2017-02-12T08:22:05Z</time>
      </trkpt>
      <trkpt lat="44.90173" lon="-0.46762">
        <ele>20.32</ele>
        <time>2017-02-12T08:22:22Z</time>
      </trkpt>
      <trkpt lat="44.90172" lon="-0.46787">
        <ele>20.32</ele>
        <time>2017-02-12T08:22:39Z</time>
      </trkpt>
      <trkpt lat="44.90171" lon="-0.46812">
        <ele>20.32</ele>
        <time>2017-02-12T08:22:56Z</time>
      </trkpt>
      <trkpt lat="44.90173" lon="-0.46827">
        <ele>20.32</ele>
        <time>2017-02-12T08:23:09Z</time>
      </trkpt>
      <trkpt lat="44.90178" lon="-0.46833">
        <ele>21.77</ele>
        <time>2017-02-12T08:23:16Z</time>
      </trkpt>
      <trkpt lat="44.90193" lon="-0.46846">
        <ele>23.21</ele>
        <time>2017-02-12T08:23:31Z</time>
      </trkpt>
      <trkpt lat="44.90202" lon="-0.4686">
        <ele>24.17</ele>
        <time>2017-02-12T08:23:44Z</time>
      </trkpt>
      <trkpt lat="44.90211" lon="-0.46867">
        <ele>24.65</ele>
        <time>2017-02-12T08:23:57Z</time>
      </trkpt>
      <trkpt lat="44.90212" lon="-0.46871">
        <ele>24.65</ele>
        <time>2017-02-12T08:24:00Z</time>
      </trkpt>
      <trkpt lat="44.90215" lon="-0.46897">
        <ele>25.13</ele>
        <time>2017-02-12T08:24:16Z</time>
      </trkpt>
      <trkpt lat="44.90213" lon="-0.46919">
        <ele>25.13</ele>
        <time>2017-02-12T08:24:31Z</time>
      </trkpt>
      <trkpt lat="44.90209" lon="-0.46943">
        <ele>23.69</ele>
        <time>2017-02-12T08:24:46Z</time>
      </trkpt>
      <trkpt lat="44.90203" lon="-0.4696">
        <ele>23.21</ele>
        <time>2017-02-12T08:25:00Z</time>
      </trkpt>
      <trkpt lat="44.90184" lon="-0.4695">
        <ele>23.69</ele>
        <time>2017-02-12T08:25:19Z</time>
      </trkpt>
      <trkpt lat="44.90168" lon="-0.46945">
        <ele>21.77</ele>
        <time>2017-02-12T08:25:35Z</time>
      </trkpt>
      <trkpt lat="44.90165" lon="-0.4695">
        <ele>21.29</ele>
        <time>2017-02-12T08:25:41Z</time>
      </trkpt>
      <trkpt lat="44.90163" lon="-0.46972">
        <ele>19.84</ele>
        <time>2017-02-12T08:25:55Z</time>
      </trkpt>
      <trkpt lat="44.90161" lon="-0.47">
        <ele>19.36</ele>
        <time>2017-02-12T08:26:09Z</time>
      </trkpt>
      <trkpt lat="44.90159" lon="-0.47022">
        <ele>19.36</ele>
        <time>2017-02-12T08:26:22Z</time>
      </trkpt>
      <trkpt lat="44.90157" lon="-0.4704">
        <ele>19.36</ele>
        <time>2017-02-12T08:26:35Z</time>
      </trkpt>
      <trkpt lat="44.90149" lon="-0.47063">
        <ele>18.88</ele>
        <time>2017-02-12T08:26:50Z</time>
      </trkpt>
      <trkpt lat="44.90147" lon="-0.47068">
        <ele>18.4</ele>
        <time>2017-02-12T08:26:57Z</time>
      </trkpt>
      <trkpt lat="44.90147" lon="-0.47073">
        <ele>18.4</ele>
        <time>2017-02-12T08:27:01Z</time>
      </trkpt>
      <trkpt lat="44.90151" lon="-0.47087">
        <ele>18.4</ele>
        <time>2017-02-12T08:27:10Z</time>
      </trkpt>
      <trkpt lat="44.90164" lon="-0.47107">
        <ele>19.36</ele>
        <time>2017-02-12T08:27:26Z</time>
      </trkpt>
      <trkpt lat="44.90178" lon="-0.47128">
        <ele>19.36</ele>
        <time>2017-02-12T08:27:43Z</time>
      </trkpt>
      <trkpt lat="44.90176" lon="-0.47139">
        <ele>19.36</ele>
        <time>2017-02-12T08:27:51Z</time>
      </trkpt>
      <trkpt lat="44.90175" lon="-0.47142">
        <ele>17.92</ele>
        <time>2017-02-12T08:27:53Z</time>
      </trkpt>
      <trkpt lat="44.90161" lon="-0.47159">
        <ele>17.44</ele>
        <time>2017-02-12T08:28:08Z</time>
      </trkpt>
      <trkpt lat="44.90149" lon="-0.47177">
        <ele>16.96</ele>
        <time>2017-02-12T08:28:24Z</time>
      </trkpt>
      <trkpt lat="44.90135" lon="-0.47197">
        <ele>17.44</ele>
        <time>2017-02-12T08:28:40Z</time>
      </trkpt>
      <trkpt lat="44.90124" lon="-0.47212">
        <ele>16</ele>
        <time>2017-02-12T08:28:53Z</time>
      </trkpt>
      <trkpt lat="44.90112" lon="-0.47231">
        <ele>16</ele>
        <time>2017-02-12T08:29:07Z</time>
      </trkpt>
      <trkpt lat="44.90099" lon="-0.47249">
        <ele>15.52</ele>
        <time>2017-02-12T08:29:22Z</time>
      </trkpt>
      <trkpt lat="44.90085" lon="-0.47267">
        <ele>16.96</ele>
        <time>2017-02-12T08:29:39Z</time>
      </trkpt>
      <trkpt lat="44.90073" lon="-0.47284">
        <ele>16.96</ele>
        <time>2017-02-12T08:29:57Z</time>
      </trkpt>
      <trkpt lat="44.90063" lon="-0.47299">
        <ele>15.52</ele>
        <time>2017-02-12T08:30:15Z</time>
      </trkpt>
      <trkpt lat="44.9006" lon="-0.47302">
        <ele>17.44</ele>
        <time>2017-02-12T08:30:20Z</time>
      </trkpt>
      <trkpt lat="44.90053" lon="-0.47316">
        <ele>17.44</ele>
        <time>2017-02-12T08:30:35Z</time>
      </trkpt>
      <trkpt lat="44.90055" lon="-0.47336">
        <ele>18.4</ele>
        <time>2017-02-12T08:30:50Z</time>
      </trkpt>
      <trkpt lat="44.90054" lon="-0.47338">
        <ele>18.4</ele>
        <time>2017-02-12T08:30:52Z</time>
      </trkpt>
      <trkpt lat="44.90045" lon="-0.47355">
        <ele>18.4</ele>
        <time>2017-02-12T08:31:06Z</time>
      </trkpt>
      <trkpt lat="44.90033" lon="-0.4737">
        <ele>18.88</ele>
        <time>2017-02-12T08:31:20Z</time>
      </trkpt>
      <trkpt lat="44.9002" lon="-0.47374">
        <ele>17.44</ele>
        <time>2017-02-12T08:31:32Z</time>
      </trkpt>
      <trkpt lat="44.90007" lon="-0.47364">
        <ele>17.44</ele>
        <time>2017-02-12T08:31:48Z</time>
      </trkpt>
      <trkpt lat="44.89995" lon="-0.47356">
        <ele>15.52</ele>
        <time>2017-02-12T08:32:05Z</time>
      </trkpt>
      <trkpt lat="44.89981" lon="-0.4736">
        <ele>16.96</ele>
        <time>2017-02-12T08:32:18Z</time>
      </trkpt>
      <trkpt lat="44.89986" lon="-0.47378">
        <ele>16.96</ele>
        <time>2017-02-12T08:32:32Z</time>
      </trkpt>
      <trkpt lat="44.89989" lon="-0.47385">
        <ele>16.96</ele>
        <time>2017-02-12T08:32:45Z</time>
      </trkpt>
      <trkpt lat="44.89991" lon="-0.47394">
        <ele>16.48</ele>
        <time>2017-02-12T08:32:57Z</time>
      </trkpt>
      <trkpt lat="44.89989" lon="-0.47394">
        <ele>16.48</ele>
        <time>2017-02-12T08:33:10Z</time>
      </trkpt>
      <trkpt lat="44.8999" lon="-0.4739">
        <ele>16.48</ele>
        <time>2017-02-12T08:33:27Z</time>
      </trkpt>
      <trkpt lat="44.89987" lon="-0.47389">
        <ele>16.48</ele>
        <time>2017-02-12T08:33:49Z</time>
      </trkpt>
      <trkpt lat="44.89986" lon="-0.47386">
        <ele>16.48</ele>
        <time>2017-02-12T08:34:05Z</time>
      </trkpt>
      <trkpt lat="44.89988" lon="-0.47395">
        <ele>16.96</ele>
        <time>2017-02-12T08:34:24Z</time>
      </trkpt>
      <trkpt lat="44.89989" lon="-0.47398">
        <ele>16.96</ele>
        <time>2017-02-12T08:34:45Z</time>
      </trkpt>
      <trkpt lat="44.89993" lon="-0.47397">
        <ele>16.96</ele>
        <time>2017-02-12T08:35:02Z</time>
      </trkpt>
      <trkpt lat="44.89995" lon="-0.47392">
        <ele>16.96</ele>
        <time>2017-02-12T08:35:20Z</time>
      </trkpt>
      <trkpt lat="44.89994" lon="-0.4739">
        <ele>16.96</ele>
        <time>2017-02-12T08:35:35Z</time>
      </trkpt>
      <trkpt lat="44.89996" lon="-0.47385">
        <ele>16.48</ele>
        <time>2017-02-12T08:36:03Z</time>
      </trkpt>
      <trkpt lat="44.89992" lon="-0.47399">
        <ele>16.48</ele>
        <time>2017-02-12T08:36:21Z</time>
      </trkpt>
      <trkpt lat="44.89992" lon="-0.47402">
        <ele>16.48</ele>
        <time>2017-02-12T08:36:43Z</time>
      </trkpt>
      <trkpt lat="44.89988" lon="-0.47401">
        <ele>16.48</ele>
        <time>2017-02-12T08:37:06Z</time>
      </trkpt>
      <trkpt lat="44.8999" lon="-0.47399">
        <ele>16.48</ele>
        <time>2017-02-12T08:37:32Z</time>
      </trkpt>
      <trkpt lat="44.89994" lon="-0.47396">
        <ele>16.48</ele>
        <time>2017-02-12T08:37:52Z</time>
      </trkpt>
      <trkpt lat="44.89997" lon="-0.47397">
        <ele>16.48</ele>
        <time>2017-02-12T08:38:17Z</time>
      </trkpt>
      <trkpt lat="44.89994" lon="-0.47395">
        <ele>16.48</ele>
        <time>2017-02-12T08:38:36Z</time>
      </trkpt>
      <trkpt lat="44.89994" lon="-0.4739">
        <ele>16</ele>
        <time>2017-02-12T08:39:01Z</time>
      </trkpt>
      <trkpt lat="44.89995" lon="-0.47385">
        <ele>16.48</ele>
        <time>2017-02-12T08:39:33Z</time>
      </trkpt>
      <trkpt lat="44.89993" lon="-0.474">
        <ele>16.48</ele>
        <time>2017-02-12T08:39:51Z</time>
      </trkpt>
      <trkpt lat="44.89994" lon="-0.47408">
        <ele>15.04</ele>
        <time>2017-02-12T08:39:56Z</time>
      </trkpt>
      <trkpt lat="44.9" lon="-0.47422">
        <ele>15.04</ele>
        <time>2017-02-12T08:40:10Z</time>
      </trkpt>
      <trkpt lat="44.90005" lon="-0.47429">
        <ele>15.04</ele>
        <time>2017-02-12T08:40:16Z</time>
      </trkpt>
      <trkpt lat="44.90007" lon="-0.47433">
        <ele>15.04</ele>
        <time>2017-02-12T08:40:19Z</time>
      </trkpt>
      <trkpt lat="44.90011" lon="-0.47443">
        <ele>14.56</ele>
        <time>2017-02-12T08:40:26Z</time>
      </trkpt>
      <trkpt lat="44.90019" lon="-0.47456">
        <ele>14.56</ele>
        <time>2017-02-12T08:40:37Z</time>
      </trkpt>
      <trkpt lat="44.9002" lon="-0.47459">
        <ele>14.56</ele>
        <time>2017-02-12T08:40:39Z</time>
      </trkpt>
      <trkpt lat="44.90024" lon="-0.47463">
        <ele>14.56</ele>
        <time>2017-02-12T08:40:44Z</time>
      </trkpt>
      <trkpt lat="44.9003" lon="-0.47474">
        <ele>14.56</ele>
        <time>2017-02-12T08:40:59Z</time>
      </trkpt>
      <trkpt lat="44.90032" lon="-0.47476">
        <ele>14.08</ele>
        <time>2017-02-12T08:41:19Z</time>
      </trkpt>
      <trkpt lat="44.90033" lon="-0.47477">
        <ele>14.08</ele>
        <time>2017-02-12T08:41:36Z</time>
      </trkpt>
      <trkpt lat="44.90032" lon="-0.47475">
        <ele>14.08</ele>
        <time>2017-02-12T08:41:58Z</time>
      </trkpt>
      <trkpt lat="44.90025" lon="-0.47469">
        <ele>14.08</ele>
        <time>2017-02-12T08:42:11Z</time>
      </trkpt>
      <trkpt lat="44.90022" lon="-0.47457">
        <ele>14.08</ele>
        <time>2017-02-12T08:42:22Z</time>
      </trkpt>
      <trkpt lat="44.90019" lon="-0.47449">
        <ele>14.08</ele>
        <time>2017-02-12T08:42:33Z</time>
      </trkpt>
      <trkpt lat="44.90017" lon="-0.47447">
        <ele>14.08</ele>
        <time>2017-02-12T08:42:35Z</time>
      </trkpt>
      <trkpt lat="44.90008" lon="-0.47433">
        <ele>14.08</ele>
        <time>2017-02-12T08:42:47Z</time>
      </trkpt>
      <trkpt lat="44.89999" lon="-0.4742">
        <ele>14.08</ele>
        <time>2017-02-12T08:42:59Z</time>
      </trkpt>
      <trkpt lat="44.89995" lon="-0.47416">
        <ele>14.56</ele>
        <time>2017-02-12T08:43:03Z</time>
      </trkpt>
      <trkpt lat="44.89992" lon="-0.47415">
        <ele>14.56</ele>
        <time>2017-02-12T08:43:06Z</time>
      </trkpt>
      <trkpt lat="44.89984" lon="-0.47415">
        <ele>15.52</ele>
        <time>2017-02-12T08:43:15Z</time>
      </trkpt>
      <trkpt lat="44.89972" lon="-0.47431">
        <ele>16.48</ele>
        <time>2017-02-12T08:43:29Z</time>
      </trkpt>
      <trkpt lat="44.89967" lon="-0.47442">
        <ele>16.96</ele>
        <time>2017-02-12T08:43:36Z</time>
      </trkpt>
      <trkpt lat="44.89964" lon="-0.4745">
        <ele>17.44</ele>
        <time>2017-02-12T08:43:42Z</time>
      </trkpt>
      <trkpt lat="44.89963" lon="-0.47456">
        <ele>17.44</ele>
        <time>2017-02-12T08:43:46Z</time>
      </trkpt>
      <trkpt lat="44.8996" lon="-0.47462">
        <ele>17.92</ele>
        <time>2017-02-12T08:43:51Z</time>
      </trkpt>
      <trkpt lat="44.89955" lon="-0.47482">
        <ele>18.88</ele>
        <time>2017-02-12T08:44:03Z</time>
      </trkpt>
      <trkpt lat="44.89949" lon="-0.47499">
        <ele>19.84</ele>
        <time>2017-02-12T08:44:15Z</time>
      </trkpt>
      <trkpt lat="44.89943" lon="-0.47515">
        <ele>20.32</ele>
        <time>2017-02-12T08:44:27Z</time>
      </trkpt>
      <trkpt lat="44.89932" lon="-0.47531">
        <ele>21.29</ele>
        <time>2017-02-12T08:44:42Z</time>
      </trkpt>
      <trkpt lat="44.89927" lon="-0.47535">
        <ele>21.29</ele>
        <time>2017-02-12T08:44:47Z</time>
      </trkpt>
      <trkpt lat="44.89926" lon="-0.47538">
        <ele>21.29</ele>
        <time>2017-02-12T08:44:49Z</time>
      </trkpt>
      <trkpt lat="44.89914" lon="-0.47546">
        <ele>22.73</ele>
        <time>2017-02-12T08:45:04Z</time>
      </trkpt>
      <trkpt lat="44.89907" lon="-0.47553">
        <ele>23.21</ele>
        <time>2017-02-12T08:45:13Z</time>
      </trkpt>
      <trkpt lat="44.89898" lon="-0.47567">
        <ele>23.21</ele>
        <time>2017-02-12T08:45:25Z</time>
      </trkpt>
      <trkpt lat="44.89888" lon="-0.47579">
        <ele>23.21</ele>
        <time>2017-02-12T08:45:39Z</time>
      </trkpt>
      <trkpt lat="44.89881" lon="-0.47598">
        <ele>23.21</ele>
        <time>2017-02-12T08:45:54Z</time>
      </trkpt>
      <trkpt lat="44.89872" lon="-0.47615">
        <ele>21.77</ele>
        <time>2017-02-12T08:46:08Z</time>
      </trkpt>
      <trkpt lat="44.8986" lon="-0.47635">
        <ele>21.29</ele>
        <time>2017-02-12T08:46:24Z</time>
      </trkpt>
      <trkpt lat="44.89855" lon="-0.47649">
        <ele>20.32</ele>
        <time>2017-02-12T08:46:36Z</time>
      </trkpt>
      <trkpt lat="44.89855" lon="-0.47653">
        <ele>21.29</ele>
        <time>2017-02-12T08:46:51Z</time>
      </trkpt>
      <trkpt lat="44.89854" lon="-0.47654">
        <ele>21.29</ele>
        <time>2017-02-12T08:47:13Z</time>
      </trkpt>
      <trkpt lat="44.89854" lon="-0.47654">
        <ele>21.29</ele>
        <time>2017-02-12T08:47:32Z</time>
      </trkpt>
      <trkpt lat="44.8984" lon="-0.47647">
        <ele>21.29</ele>
        <time>2017-02-12T08:47:48Z</time>
      </trkpt>
      <trkpt lat="44.89833" lon="-0.47645">
        <ele>21.29</ele>
        <time>2017-02-12T08:47:56Z</time>
      </trkpt>
      <trkpt lat="44.89824" lon="-0.47658">
        <ele>20.32</ele>
        <time>2017-02-12T08:48:08Z</time>
      </trkpt>
      <trkpt lat="44.89814" lon="-0.47676">
        <ele>19.84</ele>
        <time>2017-02-12T08:48:22Z</time>
      </trkpt>
      <trkpt lat="44.89809" lon="-0.47685">
        <ele>19.84</ele>
        <time>2017-02-12T08:48:29Z</time>
      </trkpt>
      <trkpt lat="44.89801" lon="-0.47703">
        <ele>19.36</ele>
        <time>2017-02-12T08:48:43Z</time>
      </trkpt>
      <trkpt lat="44.8979" lon="-0.47722">
        <ele>18.88</ele>
        <time>2017-02-12T08:48:57Z</time>
      </trkpt>
      <trkpt lat="44.89782" lon="-0.47737">
        <ele>18.88</ele>
        <time>2017-02-12T08:49:10Z</time>
      </trkpt>
      <trkpt lat="44.89778" lon="-0.47741">
        <ele>18.88</ele>
        <time>2017-02-12T08:49:22Z</time>
      </trkpt>
      <trkpt lat="44.89766" lon="-0.47734">
        <ele>18.88</ele>
        <time>2017-02-12T08:49:35Z</time>
      </trkpt>
      <trkpt lat="44.89753" lon="-0.47723">
        <ele>18.4</ele>
        <time>2017-02-12T08:49:47Z</time>
      </trkpt>
      <trkpt lat="44.89737" lon="-0.47711">
        <ele>18.88</ele>
        <time>2017-02-12T08:50:00Z</time>
      </trkpt>
      <trkpt lat="44.89724" lon="-0.47699">
        <ele>18.88</ele>
        <time>2017-02-12T08:50:15Z</time>
      </trkpt>
      <trkpt lat="44.89713" lon="-0.47686">
        <ele>18.4</ele>
        <time>2017-02-12T08:50:26Z</time>
      </trkpt>
      <trkpt lat="44.89705" lon="-0.47677">
        <ele>18.4</ele>
        <time>2017-02-12T08:50:36Z</time>
      </trkpt>
      <trkpt lat="44.89702" lon="-0.47674">
        <ele>18.4</ele>
        <time>2017-02-12T08:50:39Z</time>
      </trkpt>
      <trkpt lat="44.89688" lon="-0.47656">
        <ele>19.84</ele>
        <time>2017-02-12T08:50:54Z</time>
      </trkpt>
      <trkpt lat="44.89675" lon="-0.47643">
        <ele>20.32</ele>
        <time>2017-02-12T08:51:07Z</time>
      </trkpt>
      <trkpt lat="44.8966" lon="-0.47636">
        <ele>20.81</ele>
        <time>2017-02-12T08:51:19Z</time>
      </trkpt>
      <trkpt lat="44.89642" lon="-0.47629">
        <ele>20.81</ele>
        <time>2017-02-12T08:51:34Z</time>
      </trkpt>
      <trkpt lat="44.89626" lon="-0.47621">
        <ele>20.81</ele>
        <time>2017-02-12T08:51:48Z</time>
      </trkpt>
      <trkpt lat="44.89609" lon="-0.47612">
        <ele>20.81</ele>
        <time>2017-02-12T08:52:02Z</time>
      </trkpt>
      <trkpt lat="44.89595" lon="-0.47604">
        <ele>20.81</ele>
        <time>2017-02-12T08:52:15Z</time>
      </trkpt>
      <trkpt lat="44.89578" lon="-0.47592">
        <ele>20.81</ele>
        <time>2017-02-12T08:52:30Z</time>
      </trkpt>
      <trkpt lat="44.89561" lon="-0.47578">
        <ele>20.81</ele>
        <time>2017-02-12T08:52:45Z</time>
      </trkpt>
      <trkpt lat="44.89546" lon="-0.47564">
        <ele>20.81</ele>
        <time>2017-02-12T08:53:00Z</time>
      </trkpt>
      <trkpt lat="44.89544" lon="-0.47563">
        <ele>20.81</ele>
        <time>2017-02-12T08:53:01Z</time>
      </trkpt>
      <trkpt lat="44.89532" lon="-0.47551">
        <ele>21.29</ele>
        <time>2017-02-12T08:53:14Z</time>
      </trkpt>
      <trkpt lat="44.8952" lon="-0.47535">
        <ele>21.29</ele>
        <time>2017-02-12T08:53:28Z</time>
      </trkpt>
      <trkpt lat="44.89507" lon="-0.4752">
        <ele>21.29</ele>
        <time>2017-02-12T08:53:42Z</time>
      </trkpt>
      <trkpt lat="44.89496" lon="-0.4751">
        <ele>21.29</ele>
        <time>2017-02-12T08:53:53Z</time>
      </trkpt>
      <trkpt lat="44.8948" lon="-0.47502">
        <ele>21.77</ele>
        <time>2017-02-12T08:54:07Z</time>
      </trkpt>
      <trkpt lat="44.89464" lon="-0.47497">
        <ele>21.77</ele>
        <time>2017-02-12T08:54:21Z</time>
      </trkpt>
      <trkpt lat="44.89446" lon="-0.47491">
        <ele>21.77</ele>
        <time>2017-02-12T08:54:36Z</time>
      </trkpt>
      <trkpt lat="44.89429" lon="-0.47491">
        <ele>21.77</ele>
        <time>2017-02-12T08:54:50Z</time>
      </trkpt>
      <trkpt lat="44.89413" lon="-0.47492">
        <ele>21.77</ele>
        <time>2017-02-12T08:55:03Z</time>
      </trkpt>
      <trkpt lat="44.89398" lon="-0.47497">
        <ele>21.77</ele>
        <time>2017-02-12T08:55:15Z</time>
      </trkpt>
      <trkpt lat="44.89386" lon="-0.47501">
        <ele>21.77</ele>
        <time>2017-02-12T08:55:24Z</time>
      </trkpt>
      <trkpt lat="44.89378" lon="-0.47503">
        <ele>21.77</ele>
        <time>2017-02-12T08:55:31Z</time>
      </trkpt>
      <trkpt lat="44.89376" lon="-0.47503">
        <ele>21.77</ele>
        <time>2017-02-12T08:55:33Z</time>
      </trkpt>
      <trkpt lat="44.8937" lon="-0.47505">
        <ele>21.77</ele>
        <time>2017-02-12T08:55:38Z</time>
      </trkpt>
      <trkpt lat="44.89368" lon="-0.47505">
        <ele>21.77</ele>
        <time>2017-02-12T08:55:40Z</time>
      </trkpt>
      <trkpt lat="44.8935" lon="-0.47508">
        <ele>21.77</ele>
        <time>2017-02-12T08:55:55Z</time>
      </trkpt>
      <trkpt lat="44.89345" lon="-0.47509">
        <ele>21.77</ele>
        <time>2017-02-12T08:55:59Z</time>
      </trkpt>
      <trkpt lat="44.89341" lon="-0.47511">
        <ele>21.77</ele>
        <time>2017-02-12T08:56:02Z</time>
      </trkpt>
      <trkpt lat="44.89338" lon="-0.47512">
        <ele>21.77</ele>
        <time>2017-02-12T08:56:04Z</time>
      </trkpt>
      <trkpt lat="44.89333" lon="-0.47515">
        <ele>21.77</ele>
        <time>2017-02-12T08:56:08Z</time>
      </trkpt>
      <trkpt lat="44.89319" lon="-0.47529">
        <ele>21.77</ele>
        <time>2017-02-12T08:56:22Z</time>
      </trkpt>
      <trkpt lat="44.89305" lon="-0.47542">
        <ele>21.29</ele>
        <time>2017-02-12T08:56:35Z</time>
      </trkpt>
      <trkpt lat="44.89289" lon="-0.4755">
        <ele>21.29</ele>
        <time>2017-02-12T08:56:48Z</time>
      </trkpt>
      <trkpt lat="44.89276" lon="-0.47553">
        <ele>21.29</ele>
        <time>2017-02-12T08:57:00Z</time>
      </trkpt>
      <trkpt lat="44.89259" lon="-0.47547">
        <ele>21.29</ele>
        <time>2017-02-12T08:57:15Z</time>
      </trkpt>
      <trkpt lat="44.89241" lon="-0.47539">
        <ele>21.29</ele>
        <time>2017-02-12T08:57:30Z</time>
      </trkpt>
      <trkpt lat="44.89223" lon="-0.47529">
        <ele>21.29</ele>
        <time>2017-02-12T08:57:44Z</time>
      </trkpt>
      <trkpt lat="44.89206" lon="-0.47522">
        <ele>21.29</ele>
        <time>2017-02-12T08:57:58Z</time>
      </trkpt>
      <trkpt lat="44.89189" lon="-0.47516">
        <ele>21.77</ele>
        <time>2017-02-12T08:58:12Z</time>
      </trkpt>
      <trkpt lat="44.89184" lon="-0.47514">
        <ele>21.77</ele>
        <time>2017-02-12T08:58:17Z</time>
      </trkpt>
      <trkpt lat="44.89167" lon="-0.4751">
        <ele>21.77</ele>
        <time>2017-02-12T08:58:32Z</time>
      </trkpt>
      <trkpt lat="44.89163" lon="-0.47509">
        <ele>21.29</ele>
        <time>2017-02-12T08:58:35Z</time>
      </trkpt>
      <trkpt lat="44.89145" lon="-0.47506">
        <ele>21.29</ele>
        <time>2017-02-12T08:58:51Z</time>
      </trkpt>
      <trkpt lat="44.89141" lon="-0.47506">
        <ele>21.29</ele>
        <time>2017-02-12T08:58:54Z</time>
      </trkpt>
      <trkpt lat="44.89139" lon="-0.47507">
        <ele>21.29</ele>
        <time>2017-02-12T08:58:56Z</time>
      </trkpt>
      <trkpt lat="44.89126" lon="-0.47504">
        <ele>21.29</ele>
        <time>2017-02-12T08:59:10Z</time>
      </trkpt>
      <trkpt lat="44.89109" lon="-0.47498">
        <ele>22.25</ele>
        <time>2017-02-12T08:59:25Z</time>
      </trkpt>
      <trkpt lat="44.89096" lon="-0.47493">
        <ele>23.21</ele>
        <time>2017-02-12T08:59:35Z</time>
      </trkpt>
      <trkpt lat="44.89095" lon="-0.47492">
        <ele>23.21</ele>
        <time>2017-02-12T08:59:36Z</time>
      </trkpt>
      <trkpt lat="44.89076" lon="-0.47486">
        <ele>23.69</ele>
        <time>2017-02-12T08:59:51Z</time>
      </trkpt>
      <trkpt lat="44.89058" lon="-0.47479">
        <ele>23.69</ele>
        <time>2017-02-12T09:00:05Z</time>
      </trkpt>
      <trkpt lat="44.89039" lon="-0.47474">
        <ele>23.69</ele>
        <time>2017-02-12T09:00:19Z</time>
      </trkpt>
      <trkpt lat="44.89024" lon="-0.47469">
        <ele>23.69</ele>
        <time>2017-02-12T09:00:31Z</time>
      </trkpt>
      <trkpt lat="44.89014" lon="-0.47466">
        <ele>23.69</ele>
        <time>2017-02-12T09:00:41Z</time>
      </trkpt>
      <trkpt lat="44.89002" lon="-0.4746">
        <ele>23.69</ele>
        <time>2017-02-12T09:00:51Z</time>
      </trkpt>
      <trkpt lat="44.88996" lon="-0.47456">
        <ele>23.69</ele>
        <time>2017-02-12T09:00:56Z</time>
      </trkpt>
      <trkpt lat="44.88984" lon="-0.47448">
        <ele>23.69</ele>
        <time>2017-02-12T09:01:06Z</time>
      </trkpt>
      <trkpt lat="44.8897" lon="-0.47437">
        <ele>23.69</ele>
        <time>2017-02-12T09:01:20Z</time>
      </trkpt>
      <trkpt lat="44.88959" lon="-0.47428">
        <ele>23.69</ele>
        <time>2017-02-12T09:01:31Z</time>
      </trkpt>
      <trkpt lat="44.88949" lon="-0.47415">
        <ele>23.69</ele>
        <time>2017-02-12T09:01:44Z</time>
      </trkpt>
      <trkpt lat="44.88942" lon="-0.47407">
        <ele>23.69</ele>
        <time>2017-02-12T09:01:52Z</time>
      </trkpt>
      <trkpt lat="44.88939" lon="-0.47402">
        <ele>23.69</ele>
        <time>2017-02-12T09:02:05Z</time>
      </trkpt>
      <trkpt lat="44.8894" lon="-0.47408">
        <ele>24.17</ele>
        <time>2017-02-12T09:02:16Z</time>
      </trkpt>
      <trkpt lat="44.8895" lon="-0.47425">
        <ele>24.17</ele>
        <time>2017-02-12T09:02:30Z</time>
      </trkpt>
      <trkpt lat="44.88956" lon="-0.47437">
        <ele>22.73</ele>
        <time>2017-02-12T09:02:42Z</time>
      </trkpt>
      <trkpt lat="44.88955" lon="-0.47439">
        <ele>22.73</ele>
        <time>2017-02-12T09:02:45Z</time>
      </trkpt>
      <trkpt lat="44.88947" lon="-0.47455">
        <ele>22.25</ele>
        <time>2017-02-12T09:02:59Z</time>
      </trkpt>
      <trkpt lat="44.8894" lon="-0.4747">
        <ele>21.77</ele>
        <time>2017-02-12T09:03:12Z</time>
      </trkpt>
      <trkpt lat="44.88936" lon="-0.47475">
        <ele>21.77</ele>
        <time>2017-02-12T09:03:26Z</time>
      </trkpt>
      <trkpt lat="44.88927" lon="-0.47487">
        <ele>21.77</ele>
        <time>2017-02-12T09:03:46Z</time>
      </trkpt>
      <trkpt lat="44.88926" lon="-0.47491">
        <ele>21.77</ele>
        <time>2017-02-12T09:03:48Z</time>
      </trkpt>
      <trkpt lat="44.88916" lon="-0.4751">
        <ele>21.77</ele>
        <time>2017-02-12T09:04:02Z</time>
      </trkpt>
      <trkpt lat="44.88905" lon="-0.47526">
        <ele>21.77</ele>
        <time>2017-02-12T09:04:15Z</time>
      </trkpt>
      <trkpt lat="44.88904" lon="-0.47528">
        <ele>21.77</ele>
        <time>2017-02-12T09:04:17Z</time>
      </trkpt>
      <trkpt lat="44.889" lon="-0.47536">
        <ele>23.21</ele>
        <time>2017-02-12T09:04:23Z</time>
      </trkpt>
      <trkpt lat="44.88896" lon="-0.47542">
        <ele>23.21</ele>
        <time>2017-02-12T09:04:29Z</time>
      </trkpt>
      <trkpt lat="44.88884" lon="-0.47563">
        <ele>24.17</ele>
        <time>2017-02-12T09:04:44Z</time>
      </trkpt>
      <trkpt lat="44.88872" lon="-0.47583">
        <ele>24.65</ele>
        <time>2017-02-12T09:05:00Z</time>
      </trkpt>
      <trkpt lat="44.88866" lon="-0.47596">
        <ele>25.13</ele>
        <time>2017-02-12T09:05:16Z</time>
      </trkpt>
      <trkpt lat="44.88866" lon="-0.47595">
        <ele>25.61</ele>
        <time>2017-02-12T09:05:29Z</time>
      </trkpt>
      <trkpt lat="44.88866" lon="-0.47593">
        <ele>25.61</ele>
        <time>2017-02-12T09:05:43Z</time>
      </trkpt>
      <trkpt lat="44.88866" lon="-0.47599">
        <ele>25.61</ele>
        <time>2017-02-12T09:05:58Z</time>
      </trkpt>
      <trkpt lat="44.88865" lon="-0.47601">
        <ele>25.61</ele>
        <time>2017-02-12T09:06:00Z</time>
      </trkpt>
      <trkpt lat="44.88866" lon="-0.47605">
        <ele>25.61</ele>
        <time>2017-02-12T09:06:03Z</time>
      </trkpt>
      <trkpt lat="44.8887" lon="-0.47617">
        <ele>25.61</ele>
        <time>2017-02-12T09:06:13Z</time>
      </trkpt>
      <trkpt lat="44.8888" lon="-0.47638">
        <ele>25.61</ele>
        <time>2017-02-12T09:06:28Z</time>
      </trkpt>
      <trkpt lat="44.88887" lon="-0.47659">
        <ele>25.61</ele>
        <time>2017-02-12T09:06:41Z</time>
      </trkpt>
      <trkpt lat="44.88897" lon="-0.47686">
        <ele>25.61</ele>
        <time>2017-02-12T09:06:58Z</time>
      </trkpt>
      <trkpt lat="44.88906" lon="-0.47703">
        <ele>25.61</ele>
        <time>2017-02-12T09:07:10Z</time>
      </trkpt>
      <trkpt lat="44.88915" lon="-0.47722">
        <ele>25.61</ele>
        <time>2017-02-12T09:07:23Z</time>
      </trkpt>
      <trkpt lat="44.88928" lon="-0.4774">
        <ele>26.09</ele>
        <time>2017-02-12T09:07:36Z</time>
      </trkpt>
      <trkpt lat="44.8894" lon="-0.4776">
        <ele>26.57</ele>
        <time>2017-02-12T09:07:51Z</time>
      </trkpt>
      <trkpt lat="44.88952" lon="-0.47776">
        <ele>26.09</ele>
        <time>2017-02-12T09:08:05Z</time>
      </trkpt>
      <trkpt lat="44.88956" lon="-0.4778">
        <ele>26.09</ele>
        <time>2017-02-12T09:08:10Z</time>
      </trkpt>
      <trkpt lat="44.88971" lon="-0.47794">
        <ele>26.57</ele>
        <time>2017-02-12T09:08:24Z</time>
      </trkpt>
      <trkpt lat="44.88979" lon="-0.47798">
        <ele>26.57</ele>
        <time>2017-02-12T09:08:31Z</time>
      </trkpt>
      <trkpt lat="44.88995" lon="-0.47812">
        <ele>26.57</ele>
        <time>2017-02-12T09:08:45Z</time>
      </trkpt>
      <trkpt lat="44.89001" lon="-0.47816">
        <ele>26.57</ele>
        <time>2017-02-12T09:08:50Z</time>
      </trkpt>
      <trkpt lat="44.89022" lon="-0.47826">
        <ele>26.09</ele>
        <time>2017-02-12T09:09:06Z</time>
      </trkpt>
      <trkpt lat="44.89037" lon="-0.4783">
        <ele>24.65</ele>
        <time>2017-02-12T09:09:20Z</time>
      </trkpt>
      <trkpt lat="44.89054" lon="-0.47833">
        <ele>24.17</ele>
        <time>2017-02-12T09:09:34Z</time>
      </trkpt>
      <trkpt lat="44.8907" lon="-0.47834">
        <ele>23.21</ele>
        <time>2017-02-12T09:09:48Z</time>
      </trkpt>
      <trkpt lat="44.89082" lon="-0.4784">
        <ele>23.21</ele>
        <time>2017-02-12T09:09:59Z</time>
      </trkpt>
      <trkpt lat="44.89084" lon="-0.47846">
        <ele>23.21</ele>
        <time>2017-02-12T09:10:03Z</time>
      </trkpt>
      <trkpt lat="44.89083" lon="-0.4787">
        <ele>23.21</ele>
        <time>2017-02-12T09:10:18Z</time>
      </trkpt>
      <trkpt lat="44.89079" lon="-0.47884">
        <ele>23.21</ele>
        <time>2017-02-12T09:10:26Z</time>
      </trkpt>
      <trkpt lat="44.89078" lon="-0.47889">
        <ele>23.21</ele>
        <time>2017-02-12T09:10:29Z</time>
      </trkpt>
      <trkpt lat="44.89076" lon="-0.47893">
        <ele>24.65</ele>
        <time>2017-02-12T09:10:32Z</time>
      </trkpt>
      <trkpt lat="44.89076" lon="-0.47904">
        <ele>25.61</ele>
        <time>2017-02-12T09:10:39Z</time>
      </trkpt>
      <trkpt lat="44.89079" lon="-0.47911">
        <ele>25.61</ele>
        <time>2017-02-12T09:10:43Z</time>
      </trkpt>
      <trkpt lat="44.89087" lon="-0.47937">
        <ele>26.57</ele>
        <time>2017-02-12T09:10:58Z</time>
      </trkpt>
      <trkpt lat="44.89089" lon="-0.47942">
        <ele>26.57</ele>
        <time>2017-02-12T09:11:01Z</time>
      </trkpt>
      <trkpt lat="44.89096" lon="-0.4796">
        <ele>27.53</ele>
        <time>2017-02-12T09:11:13Z</time>
      </trkpt>
      <trkpt lat="44.89104" lon="-0.47979">
        <ele>28.02</ele>
        <time>2017-02-12T09:11:26Z</time>
      </trkpt>
      <trkpt lat="44.89114" lon="-0.48004">
        <ele>28.98</ele>
        <time>2017-02-12T09:11:41Z</time>
      </trkpt>
      <trkpt lat="44.89121" lon="-0.48026">
        <ele>29.94</ele>
        <time>2017-02-12T09:11:54Z</time>
      </trkpt>
      <trkpt lat="44.8913" lon="-0.48045">
        <ele>29.94</ele>
        <time>2017-02-12T09:12:07Z</time>
      </trkpt>
      <trkpt lat="44.89131" lon="-0.48048">
        <ele>29.94</ele>
        <time>2017-02-12T09:12:09Z</time>
      </trkpt>
      <trkpt lat="44.89142" lon="-0.48072">
        <ele>30.9</ele>
        <time>2017-02-12T09:12:25Z</time>
      </trkpt>
      <trkpt lat="44.89143" lon="-0.48073">
        <ele>30.9</ele>
        <time>2017-02-12T09:12:26Z</time>
      </trkpt>
      <trkpt lat="44.8915" lon="-0.48091">
        <ele>31.86</ele>
        <time>2017-02-12T09:12:40Z</time>
      </trkpt>
      <trkpt lat="44.89153" lon="-0.48103">
        <ele>33.3</ele>
        <time>2017-02-12T09:12:54Z</time>
      </trkpt>
      <trkpt lat="44.89156" lon="-0.48106">
        <ele>32.82</ele>
        <time>2017-02-12T09:13:07Z</time>
      </trkpt>
      <trkpt lat="44.89159" lon="-0.48118">
        <ele>33.78</ele>
        <time>2017-02-12T09:13:19Z</time>
      </trkpt>
      <trkpt lat="44.89163" lon="-0.48132">
        <ele>34.26</ele>
        <time>2017-02-12T09:13:34Z</time>
      </trkpt>
      <trkpt lat="44.89164" lon="-0.48141">
        <ele>35.23</ele>
        <time>2017-02-12T09:13:39Z</time>
      </trkpt>
      <trkpt lat="44.89167" lon="-0.48154">
        <ele>36.19</ele>
        <time>2017-02-12T09:13:53Z</time>
      </trkpt>
      <trkpt lat="44.89171" lon="-0.48165">
        <ele>36.67</ele>
        <time>2017-02-12T09:14:02Z</time>
      </trkpt>
      <trkpt lat="44.8918" lon="-0.4818">
        <ele>37.63</ele>
        <time>2017-02-12T09:14:16Z</time>
      </trkpt>
      <trkpt lat="44.89188" lon="-0.48192">
        <ele>38.11</ele>
        <time>2017-02-12T09:14:29Z</time>
      </trkpt>
      <trkpt lat="44.89191" lon="-0.48195">
        <ele>38.11</ele>
        <time>2017-02-12T09:14:43Z</time>
      </trkpt>
      <trkpt lat="44.89193" lon="-0.48198">
        <ele>38.11</ele>
        <time>2017-02-12T09:15:07Z</time>
      </trkpt>
      <trkpt lat="44.89195" lon="-0.482">
        <ele>38.11</ele>
        <time>2017-02-12T09:15:09Z</time>
      </trkpt>
      <trkpt lat="44.89208" lon="-0.48214">
        <ele>36.67</ele>
        <time>2017-02-12T09:15:23Z</time>
      </trkpt>
      <trkpt lat="44.8922" lon="-0.48229">
        <ele>35.71</ele>
        <time>2017-02-12T09:15:36Z</time>
      </trkpt>
      <trkpt lat="44.89233" lon="-0.48242">
        <ele>34.74</ele>
        <time>2017-02-12T09:15:49Z</time>
      </trkpt>
      <trkpt lat="44.89241" lon="-0.48248">
        <ele>33.78</ele>
        <time>2017-02-12T09:15:57Z</time>
      </trkpt>
      <trkpt lat="44.89252" lon="-0.48265">
        <ele>32.34</ele>
        <time>2017-02-12T09:16:10Z</time>
      </trkpt>
      <trkpt lat="44.89264" lon="-0.48284">
        <ele>31.38</ele>
        <time>2017-02-12T09:16:25Z</time>
      </trkpt>
      <trkpt lat="44.89276" lon="-0.48298">
        <ele>30.42</ele>
        <time>2017-02-12T09:16:38Z</time>
      </trkpt>
      <trkpt lat="44.89291" lon="-0.48309">
        <ele>29.46</ele>
        <time>2017-02-12T09:16:52Z</time>
      </trkpt>
      <trkpt lat="44.89296" lon="-0.4831">
        <ele>29.46</ele>
        <time>2017-02-12T09:16:56Z</time>
      </trkpt>
      <trkpt lat="44.89305" lon="-0.48308">
        <ele>28.98</ele>
        <time>2017-02-12T09:17:02Z</time>
      </trkpt>
      <trkpt lat="44.89325" lon="-0.483">
        <ele>28.5</ele>
        <time>2017-02-12T09:17:16Z</time>
      </trkpt>
      <trkpt lat="44.89338" lon="-0.48296">
        <ele>28.02</ele>
        <time>2017-02-12T09:17:24Z</time>
      </trkpt>
      <trkpt lat="44.89358" lon="-0.48289">
        <ele>27.05</ele>
        <time>2017-02-12T09:17:40Z</time>
      </trkpt>
      <trkpt lat="44.89376" lon="-0.48283">
        <ele>27.05</ele>
        <time>2017-02-12T09:17:55Z</time>
      </trkpt>
      <trkpt lat="44.89395" lon="-0.48278">
        <ele>26.57</ele>
        <time>2017-02-12T09:18:09Z</time>
      </trkpt>
      <trkpt lat="44.89403" lon="-0.48274">
        <ele>26.57</ele>
        <time>2017-02-12T09:18:15Z</time>
      </trkpt>
      <trkpt lat="44.89422" lon="-0.48273">
        <ele>26.09</ele>
        <time>2017-02-12T09:18:30Z</time>
      </trkpt>
      <trkpt lat="44.8944" lon="-0.48281">
        <ele>25.61</ele>
        <time>2017-02-12T09:18:45Z</time>
      </trkpt>
      <trkpt lat="44.89456" lon="-0.48291">
        <ele>25.13</ele>
        <time>2017-02-12T09:19:00Z</time>
      </trkpt>
      <trkpt lat="44.89473" lon="-0.48303">
        <ele>25.13</ele>
        <time>2017-02-12T09:19:14Z</time>
      </trkpt>
      <trkpt lat="44.89489" lon="-0.48308">
        <ele>24.17</ele>
        <time>2017-02-12T09:19:27Z</time>
      </trkpt>
      <trkpt lat="44.89509" lon="-0.4831">
        <ele>23.69</ele>
        <time>2017-02-12T09:19:42Z</time>
      </trkpt>
      <trkpt lat="44.89528" lon="-0.48304">
        <ele>23.21</ele>
        <time>2017-02-12T09:19:57Z</time>
      </trkpt>
      <trkpt lat="44.89541" lon="-0.48293">
        <ele>22.73</ele>
        <time>2017-02-12T09:20:08Z</time>
      </trkpt>
      <trkpt lat="44.89545" lon="-0.48288">
        <ele>22.73</ele>
        <time>2017-02-12T09:20:12Z</time>
      </trkpt>
      <trkpt lat="44.89562" lon="-0.48272">
        <ele>22.73</ele>
        <time>2017-02-12T09:20:26Z</time>
      </trkpt>
      <trkpt lat="44.89575" lon="-0.48263">
        <ele>22.25</ele>
        <time>2017-02-12T09:20:37Z</time>
      </trkpt>
      <trkpt lat="44.89592" lon="-0.48264">
        <ele>22.25</ele>
        <time>2017-02-12T09:20:51Z</time>
      </trkpt>
      <trkpt lat="44.89608" lon="-0.48278">
        <ele>22.25</ele>
        <time>2017-02-12T09:21:06Z</time>
      </trkpt>
      <trkpt lat="44.8962" lon="-0.48286">
        <ele>22.25</ele>
        <time>2017-02-12T09:21:16Z</time>
      </trkpt>
      <trkpt lat="44.89629" lon="-0.48292">
        <ele>22.25</ele>
        <time>2017-02-12T09:21:23Z</time>
      </trkpt>
      <trkpt lat="44.89635" lon="-0.48293">
        <ele>21.77</ele>
        <time>2017-02-12T09:21:27Z</time>
      </trkpt>
      <trkpt lat="44.89654" lon="-0.48274">
        <ele>20.81</ele>
        <time>2017-02-12T09:21:42Z</time>
      </trkpt>
      <trkpt lat="44.89669" lon="-0.48256">
        <ele>20.81</ele>
        <time>2017-02-12T09:21:57Z</time>
      </trkpt>
      <trkpt lat="44.89682" lon="-0.48241">
        <ele>20.32</ele>
        <time>2017-02-12T09:22:10Z</time>
      </trkpt>
      <trkpt lat="44.8969" lon="-0.48229">
        <ele>19.84</ele>
        <time>2017-02-12T09:22:18Z</time>
      </trkpt>
      <trkpt lat="44.89692" lon="-0.48217">
        <ele>19.84</ele>
        <time>2017-02-12T09:22:33Z</time>
      </trkpt>
      <trkpt lat="44.89689" lon="-0.48215">
        <ele>19.36</ele>
        <time>2017-02-12T09:22:51Z</time>
      </trkpt>
      <trkpt lat="44.89687" lon="-0.48213">
        <ele>19.36</ele>
        <time>2017-02-12T09:23:10Z</time>
      </trkpt>
      <trkpt lat="44.89688" lon="-0.48215">
        <ele>20.32</ele>
        <time>2017-02-12T09:23:32Z</time>
      </trkpt>
      <trkpt lat="44.89691" lon="-0.48208">
        <ele>20.32</ele>
        <time>2017-02-12T09:23:45Z</time>
      </trkpt>
      <trkpt lat="44.89708" lon="-0.48218">
        <ele>20.32</ele>
        <time>2017-02-12T09:24:00Z</time>
      </trkpt>
      <trkpt lat="44.89724" lon="-0.48232">
        <ele>20.32</ele>
        <time>2017-02-12T09:24:15Z</time>
      </trkpt>
      <trkpt lat="44.89731" lon="-0.48238">
        <ele>20.32</ele>
        <time>2017-02-12T09:24:22Z</time>
      </trkpt>
      <trkpt lat="44.89736" lon="-0.4824">
        <ele>20.32</ele>
        <time>2017-02-12T09:24:27Z</time>
      </trkpt>
      <trkpt lat="44.89751" lon="-0.4822">
        <ele>20.32</ele>
        <time>2017-02-12T09:24:41Z</time>
      </trkpt>
      <trkpt lat="44.89762" lon="-0.48203">
        <ele>20.32</ele>
        <time>2017-02-12T09:24:55Z</time>
      </trkpt>
      <trkpt lat="44.89771" lon="-0.48185">
        <ele>18.88</ele>
        <time>2017-02-12T09:25:09Z</time>
      </trkpt>
      <trkpt lat="44.89772" lon="-0.48182">
        <ele>18.88</ele>
        <time>2017-02-12T09:25:11Z</time>
      </trkpt>
      <trkpt lat="44.89778" lon="-0.4817">
        <ele>18.4</ele>
        <time>2017-02-12T09:25:19Z</time>
      </trkpt>
      <trkpt lat="44.89787" lon="-0.48149">
        <ele>17.92</ele>
        <time>2017-02-12T09:25:33Z</time>
      </trkpt>
      <trkpt lat="44.8979" lon="-0.48144">
        <ele>17.44</ele>
        <time>2017-02-12T09:25:37Z</time>
      </trkpt>
      <trkpt lat="44.898" lon="-0.48122">
        <ele>17.44</ele>
        <time>2017-02-12T09:25:52Z</time>
      </trkpt>
      <trkpt lat="44.89804" lon="-0.481">
        <ele>17.44</ele>
        <time>2017-02-12T09:26:05Z</time>
      </trkpt>
      <trkpt lat="44.89805" lon="-0.48096">
        <ele>17.44</ele>
        <time>2017-02-12T09:26:08Z</time>
      </trkpt>
      <trkpt lat="44.89806" lon="-0.48092">
        <ele>17.44</ele>
        <time>2017-02-12T09:26:11Z</time>
      </trkpt>
      <trkpt lat="44.89808" lon="-0.48081">
        <ele>17.44</ele>
        <time>2017-02-12T09:26:18Z</time>
      </trkpt>
      <trkpt lat="44.89808" lon="-0.48076">
        <ele>16.96</ele>
        <time>2017-02-12T09:26:21Z</time>
      </trkpt>
      <trkpt lat="44.8981" lon="-0.48052">
        <ele>16.48</ele>
        <time>2017-02-12T09:26:34Z</time>
      </trkpt>
      <trkpt lat="44.89811" lon="-0.48045">
        <ele>16.48</ele>
        <time>2017-02-12T09:26:38Z</time>
      </trkpt>
      <trkpt lat="44.89812" lon="-0.48032">
        <ele>16.48</ele>
        <time>2017-02-12T09:26:45Z</time>
      </trkpt>
      <trkpt lat="44.89815" lon="-0.48007">
        <ele>17.92</ele>
        <time>2017-02-12T09:26:57Z</time>
      </trkpt>
      <trkpt lat="44.89823" lon="-0.47988">
        <ele>17.44</ele>
        <time>2017-02-12T09:27:10Z</time>
      </trkpt>
      <trkpt lat="44.89825" lon="-0.47984">
        <ele>17.44</ele>
        <time>2017-02-12T09:27:13Z</time>
      </trkpt>
      <trkpt lat="44.89826" lon="-0.47981">
        <ele>18.4</ele>
        <time>2017-02-12T09:27:15Z</time>
      </trkpt>
      <trkpt lat="44.89837" lon="-0.47961">
        <ele>17.92</ele>
        <time>2017-02-12T09:27:30Z</time>
      </trkpt>
      <trkpt lat="44.89847" lon="-0.47944">
        <ele>17.92</ele>
        <time>2017-02-12T09:27:43Z</time>
      </trkpt>
      <trkpt lat="44.89859" lon="-0.47925">
        <ele>18.4</ele>
        <time>2017-02-12T09:27:57Z</time>
      </trkpt>
      <trkpt lat="44.89871" lon="-0.47909">
        <ele>18.4</ele>
        <time>2017-02-12T09:28:10Z</time>
      </trkpt>
      <trkpt lat="44.89874" lon="-0.47907">
        <ele>18.4</ele>
        <time>2017-02-12T09:28:13Z</time>
      </trkpt>
      <trkpt lat="44.89887" lon="-0.4789">
        <ele>18.88</ele>
        <time>2017-02-12T09:28:27Z</time>
      </trkpt>
      <trkpt lat="44.89898" lon="-0.47874">
        <ele>19.36</ele>
        <time>2017-02-12T09:28:40Z</time>
      </trkpt>
      <trkpt lat="44.89913" lon="-0.4786">
        <ele>20.32</ele>
        <time>2017-02-12T09:28:53Z</time>
      </trkpt>
      <trkpt lat="44.89925" lon="-0.47842">
        <ele>20.81</ele>
        <time>2017-02-12T09:29:06Z</time>
      </trkpt>
      <trkpt lat="44.89934" lon="-0.47824">
        <ele>21.77</ele>
        <time>2017-02-12T09:29:18Z</time>
      </trkpt>
      <trkpt lat="44.89942" lon="-0.478">
        <ele>22.73</ele>
        <time>2017-02-12T09:29:33Z</time>
      </trkpt>
      <trkpt lat="44.8995" lon="-0.47779">
        <ele>22.73</ele>
        <time>2017-02-12T09:29:46Z</time>
      </trkpt>
      <trkpt lat="44.89956" lon="-0.47758">
        <ele>22.73</ele>
        <time>2017-02-12T09:29:59Z</time>
      </trkpt>
      <trkpt lat="44.89964" lon="-0.47734">
        <ele>23.21</ele>
        <time>2017-02-12T09:30:14Z</time>
      </trkpt>
      <trkpt lat="44.89967" lon="-0.47723">
        <ele>23.69</ele>
        <time>2017-02-12T09:30:25Z</time>
      </trkpt>
      <trkpt lat="44.89971" lon="-0.47711">
        <ele>23.21</ele>
        <time>2017-02-12T09:30:33Z</time>
      </trkpt>
      <trkpt lat="44.89974" lon="-0.47697">
        <ele>23.21</ele>
        <time>2017-02-12T09:30:46Z</time>
      </trkpt>
      <trkpt lat="44.89977" lon="-0.47694">
        <ele>23.21</ele>
        <time>2017-02-12T09:30:50Z</time>
      </trkpt>
      <trkpt lat="44.89977" lon="-0.47681">
        <ele>23.21</ele>
        <time>2017-02-12T09:31:00Z</time>
      </trkpt>
      <trkpt lat="44.89978" lon="-0.47667">
        <ele>23.21</ele>
        <time>2017-02-12T09:31:14Z</time>
      </trkpt>
      <trkpt lat="44.89974" lon="-0.47665">
        <ele>22.73</ele>
        <time>2017-02-12T09:31:52Z</time>
      </trkpt>
      <trkpt lat="44.89976" lon="-0.47677">
        <ele>22.73</ele>
        <time>2017-02-12T09:32:05Z</time>
      </trkpt>
      <trkpt lat="44.89972" lon="-0.47689">
        <ele>22.73</ele>
        <time>2017-02-12T09:32:19Z</time>
      </trkpt>
      <trkpt lat="44.89969" lon="-0.47695">
        <ele>22.25</ele>
        <time>2017-02-12T09:32:31Z</time>
      </trkpt>
      <trkpt lat="44.89966" lon="-0.47694">
        <ele>22.25</ele>
        <time>2017-02-12T09:32:52Z</time>
      </trkpt>
      <trkpt lat="44.8996" lon="-0.47688">
        <ele>22.25</ele>
        <time>2017-02-12T09:33:05Z</time>
      </trkpt>
      <trkpt lat="44.89957" lon="-0.47692">
        <ele>22.25</ele>
        <time>2017-02-12T09:33:22Z</time>
      </trkpt>
      <trkpt lat="44.89959" lon="-0.47697">
        <ele>22.25</ele>
        <time>2017-02-12T09:33:39Z</time>
      </trkpt>
      <trkpt lat="44.89952" lon="-0.47696">
        <ele>22.25</ele>
        <time>2017-02-12T09:33:54Z</time>
      </trkpt>
      <trkpt lat="44.89957" lon="-0.47691">
        <ele>22.25</ele>
        <time>2017-02-12T09:34:12Z</time>
      </trkpt>
      <trkpt lat="44.89959" lon="-0.47687">
        <ele>22.25</ele>
        <time>2017-02-12T09:34:26Z</time>
      </trkpt>
      <trkpt lat="44.89958" lon="-0.47688">
        <ele>22.25</ele>
        <time>2017-02-12T09:34:39Z</time>
      </trkpt>
      <trkpt lat="44.89958" lon="-0.47689">
        <ele>22.25</ele>
        <time>2017-02-12T09:35:07Z</time>
      </trkpt>
      <trkpt lat="44.89959" lon="-0.47688">
        <ele>22.25</ele>
        <time>2017-02-12T09:35:30Z</time>
      </trkpt>
      <trkpt lat="44.89957" lon="-0.47687">
        <ele>22.25</ele>
        <time>2017-02-12T09:35:49Z</time>
      </trkpt>
      <trkpt lat="44.89959" lon="-0.4769">
        <ele>22.25</ele>
        <time>2017-02-12T09:36:10Z</time>
      </trkpt>
      <trkpt lat="44.89967" lon="-0.47692">
        <ele>22.25</ele>
        <time>2017-02-12T09:36:23Z</time>
      </trkpt>
      <trkpt lat="44.89966" lon="-0.47693">
        <ele>22.25</ele>
        <time>2017-02-12T09:36:33Z</time>
      </trkpt>
      <trkpt lat="44.89963" lon="-0.47692">
        <ele>22.25</ele>
        <time>2017-02-12T09:36:49Z</time>
      </trkpt>
      <trkpt lat="44.89959" lon="-0.47689">
        <ele>22.25</ele>
        <time>2017-02-12T09:37:04Z</time>
      </trkpt>
      <trkpt lat="44.89958" lon="-0.47687">
        <ele>22.25</ele>
        <time>2017-02-12T09:37:18Z</time>
      </trkpt>
      <trkpt lat="44.89957" lon="-0.47687">
        <ele>22.25</ele>
        <time>2017-02-12T09:37:36Z</time>
      </trkpt>
      <trkpt lat="44.89957" lon="-0.47688">
        <ele>22.25</ele>
        <time>2017-02-12T09:37:58Z</time>
      </trkpt>
      <trkpt lat="44.89957" lon="-0.47688">
        <ele>22.25</ele>
        <time>2017-02-12T09:38:13Z</time>
      </trkpt>
      <trkpt lat="44.89959" lon="-0.47689">
        <ele>22.25</ele>
        <time>2017-02-12T09:38:31Z</time>
      </trkpt>
      <trkpt lat="44.8996" lon="-0.47686">
        <ele>22.25</ele>
        <time>2017-02-12T09:38:49Z</time>
      </trkpt>
      <trkpt lat="44.8996" lon="-0.47684">
        <ele>22.73</ele>
        <time>2017-02-12T09:39:05Z</time>
      </trkpt>
      <trkpt lat="44.8996" lon="-0.47683">
        <ele>21.29</ele>
        <time>2017-02-12T09:39:30Z</time>
      </trkpt>
      <trkpt lat="44.89958" lon="-0.47684">
        <ele>21.29</ele>
        <time>2017-02-12T09:40:01Z</time>
      </trkpt>
      <trkpt lat="44.89959" lon="-0.47684">
        <ele>21.29</ele>
        <time>2017-02-12T09:40:15Z</time>
      </trkpt>
      <trkpt lat="44.89957" lon="-0.47685">
        <ele>20.81</ele>
        <time>2017-02-12T09:40:42Z</time>
      </trkpt>
      <trkpt lat="44.89959" lon="-0.47685">
        <ele>20.81</ele>
        <time>2017-02-12T09:41:01Z</time>
      </trkpt>
      <trkpt lat="44.89958" lon="-0.47689">
        <ele>21.29</ele>
        <time>2017-02-12T09:41:23Z</time>
      </trkpt>
      <trkpt lat="44.8996" lon="-0.4769">
        <ele>20.81</ele>
        <time>2017-02-12T09:41:44Z</time>
      </trkpt>
      <trkpt lat="44.89968" lon="-0.47692">
        <ele>20.81</ele>
        <time>2017-02-12T09:41:58Z</time>
      </trkpt>
      <trkpt lat="44.89966" lon="-0.47691">
        <ele>20.81</ele>
        <time>2017-02-12T09:42:13Z</time>
      </trkpt>
      <trkpt lat="44.89965" lon="-0.4769">
        <ele>20.81</ele>
        <time>2017-02-12T09:42:14Z</time>
      </trkpt>
      <trkpt lat="44.89962" lon="-0.47684">
        <ele>20.81</ele>
        <time>2017-02-12T09:42:26Z</time>
      </trkpt>
      <trkpt lat="44.89963" lon="-0.47682">
        <ele>20.81</ele>
        <time>2017-02-12T09:42:46Z</time>
      </trkpt>
      <trkpt lat="44.89963" lon="-0.47682">
        <ele>20.81</ele>
        <time>2017-02-12T09:43:07Z</time>
      </trkpt>
      <trkpt lat="44.89959" lon="-0.47686">
        <ele>20.81</ele>
        <time>2017-02-12T09:43:23Z</time>
      </trkpt>
      <trkpt lat="44.8996" lon="-0.47686">
        <ele>20.81</ele>
        <time>2017-02-12T09:43:41Z</time>
      </trkpt>
      <trkpt lat="44.89959" lon="-0.47689">
        <ele>20.81</ele>
        <time>2017-02-12T09:43:56Z</time>
      </trkpt>
      <trkpt lat="44.89958" lon="-0.47692">
        <ele>20.81</ele>
        <time>2017-02-12T09:44:11Z</time>
      </trkpt>
      <trkpt lat="44.89959" lon="-0.4769">
        <ele>20.81</ele>
        <time>2017-02-12T09:44:29Z</time>
      </trkpt>
      <trkpt lat="44.89958" lon="-0.47688">
        <ele>20.81</ele>
        <time>2017-02-12T09:44:51Z</time>
      </trkpt>
      <trkpt lat="44.89957" lon="-0.47689">
        <ele>20.81</ele>
        <time>2017-02-12T09:45:11Z</time>
      </trkpt>
      <trkpt lat="44.89958" lon="-0.47689">
        <ele>20.81</ele>
        <time>2017-02-12T09:45:38Z</time>
      </trkpt>
      <trkpt lat="44.8996" lon="-0.47689">
        <ele>20.81</ele>
        <time>2017-02-12T09:45:56Z</time>
      </trkpt>
      <trkpt lat="44.89957" lon="-0.4769">
        <ele>20.81</ele>
        <time>2017-02-12T09:46:13Z</time>
      </trkpt>
      <trkpt lat="44.89957" lon="-0.4769">
        <ele>20.81</ele>
        <time>2017-02-12T09:46:32Z</time>
      </trkpt>
      <trkpt lat="44.89957" lon="-0.47693">
        <ele>20.81</ele>
        <time>2017-02-12T09:46:53Z</time>
      </trkpt>
      <trkpt lat="44.89956" lon="-0.47691">
        <ele>20.81</ele>
        <time>2017-02-12T09:47:10Z</time>
      </trkpt>
      <trkpt lat="44.89955" lon="-0.47693">
        <ele>20.81</ele>
        <time>2017-02-12T09:47:31Z</time>
      </trkpt>
      <trkpt lat="44.89955" lon="-0.47688">
        <ele>20.81</ele>
        <time>2017-02-12T09:47:47Z</time>
      </trkpt>
      <trkpt lat="44.89957" lon="-0.47687">
        <ele>20.81</ele>
        <time>2017-02-12T09:48:10Z</time>
      </trkpt>
      <trkpt lat="44.89956" lon="-0.47689">
        <ele>20.32</ele>
        <time>2017-02-12T09:48:32Z</time>
      </trkpt>
      <trkpt lat="44.89957" lon="-0.47693">
        <ele>20.32</ele>
        <time>2017-02-12T09:48:44Z</time>
      </trkpt>
      <trkpt lat="44.89959" lon="-0.47689">
        <ele>20.32</ele>
        <time>2017-02-12T09:48:57Z</time>
      </trkpt>
      <trkpt lat="44.8996" lon="-0.4769">
        <ele>20.32</ele>
        <time>2017-02-12T09:49:12Z</time>
      </trkpt>
      <trkpt lat="44.8996" lon="-0.4769">
        <ele>20.32</ele>
        <time>2017-02-12T09:49:29Z</time>
      </trkpt>
      <trkpt lat="44.89961" lon="-0.47691">
        <ele>20.32</ele>
        <time>2017-02-12T09:49:46Z</time>
      </trkpt>
      <trkpt lat="44.89958" lon="-0.47689">
        <ele>20.32</ele>
        <time>2017-02-12T09:50:01Z</time>
      </trkpt>
      <trkpt lat="44.89959" lon="-0.47692">
        <ele>20.32</ele>
        <time>2017-02-12T09:50:24Z</time>
      </trkpt>
      <trkpt lat="44.89958" lon="-0.47691">
        <ele>20.32</ele>
        <time>2017-02-12T09:50:40Z</time>
      </trkpt>
      <trkpt lat="44.89959" lon="-0.47691">
        <ele>20.32</ele>
        <time>2017-02-12T09:51:00Z</time>
      </trkpt>
      <trkpt lat="44.89959" lon="-0.47694">
        <ele>20.32</ele>
        <time>2017-02-12T09:51:23Z</time>
      </trkpt>
      <trkpt lat="44.89963" lon="-0.47697">
        <ele>20.32</ele>
        <time>2017-02-12T09:51:35Z</time>
      </trkpt>
      <trkpt lat="44.8996" lon="-0.47695">
        <ele>20.32</ele>
        <time>2017-02-12T09:51:44Z</time>
      </trkpt>
      <trkpt lat="44.89966" lon="-0.47705">
        <ele>20.32</ele>
        <time>2017-02-12T09:51:57Z</time>
      </trkpt>
      <trkpt lat="44.89968" lon="-0.47713">
        <ele>20.32</ele>
        <time>2017-02-12T09:52:08Z</time>
      </trkpt>
      <trkpt lat="44.89969" lon="-0.47717">
        <ele>20.32</ele>
        <time>2017-02-12T09:52:19Z</time>
      </trkpt>
      <trkpt lat="44.8997" lon="-0.47718">
        <ele>20.32</ele>
        <time>2017-02-12T09:52:21Z</time>
      </trkpt>
      <trkpt lat="44.89973" lon="-0.47719">
        <ele>20.32</ele>
        <time>2017-02-12T09:52:24Z</time>
      </trkpt>
      <trkpt lat="44.89975" lon="-0.4772">
        <ele>20.32</ele>
        <time>2017-02-12T09:52:26Z</time>
      </trkpt>
      <trkpt lat="44.8998" lon="-0.47723">
        <ele>20.32</ele>
        <time>2017-02-12T09:52:31Z</time>
      </trkpt>
      <trkpt lat="44.89985" lon="-0.47724">
        <ele>20.32</ele>
        <time>2017-02-12T09:52:35Z</time>
      </trkpt>
      <trkpt lat="44.9" lon="-0.47736">
        <ele>20.32</ele>
        <time>2017-02-12T09:52:50Z</time>
      </trkpt>
      <trkpt lat="44.9001" lon="-0.47749">
        <ele>20.32</ele>
        <time>2017-02-12T09:53:01Z</time>
      </trkpt>
      <trkpt lat="44.9002" lon="-0.47767">
        <ele>20.32</ele>
        <time>2017-02-12T09:53:14Z</time>
      </trkpt>
      <trkpt lat="44.90031" lon="-0.47789">
        <ele>20.81</ele>
        <time>2017-02-12T09:53:29Z</time>
      </trkpt>
      <trkpt lat="44.90034" lon="-0.47797">
        <ele>20.81</ele>
        <time>2017-02-12T09:53:35Z</time>
      </trkpt>
      <trkpt lat="44.90032" lon="-0.47817">
        <ele>20.81</ele>
        <time>2017-02-12T09:53:48Z</time>
      </trkpt>
      <trkpt lat="44.90036" lon="-0.47828">
        <ele>20.81</ele>
        <time>2017-02-12T09:53:55Z</time>
      </trkpt>
      <trkpt lat="44.90043" lon="-0.47848">
        <ele>20.81</ele>
        <time>2017-02-12T09:54:07Z</time>
      </trkpt>
      <trkpt lat="44.90051" lon="-0.47866">
        <ele>20.81</ele>
        <time>2017-02-12T09:54:19Z</time>
      </trkpt>
      <trkpt lat="44.90054" lon="-0.47875">
        <ele>20.81</ele>
        <time>2017-02-12T09:54:25Z</time>
      </trkpt>
      <trkpt lat="44.90069" lon="-0.47893">
        <ele>20.81</ele>
        <time>2017-02-12T09:54:41Z</time>
      </trkpt>
      <trkpt lat="44.90087" lon="-0.47915">
        <ele>20.81</ele>
        <time>2017-02-12T09:55:00Z</time>
      </trkpt>
      <trkpt lat="44.90092" lon="-0.47921">
        <ele>20.81</ele>
        <time>2017-02-12T09:55:05Z</time>
      </trkpt>
      <trkpt lat="44.90096" lon="-0.47925">
        <ele>20.81</ele>
        <time>2017-02-12T09:55:09Z</time>
      </trkpt>
      <trkpt lat="44.90099" lon="-0.4793">
        <ele>20.81</ele>
        <time>2017-02-12T09:55:12Z</time>
      </trkpt>
      <trkpt lat="44.90113" lon="-0.47946">
        <ele>20.81</ele>
        <time>2017-02-12T09:55:26Z</time>
      </trkpt>
      <trkpt lat="44.90122" lon="-0.47958">
        <ele>20.81</ele>
        <time>2017-02-12T09:55:35Z</time>
      </trkpt>
      <trkpt lat="44.90129" lon="-0.47968">
        <ele>20.81</ele>
        <time>2017-02-12T09:55:43Z</time>
      </trkpt>
      <trkpt lat="44.90131" lon="-0.47972">
        <ele>20.81</ele>
        <time>2017-02-12T09:55:47Z</time>
      </trkpt>
      <trkpt lat="44.90145" lon="-0.47992">
        <ele>20.81</ele>
        <time>2017-02-12T09:56:02Z</time>
      </trkpt>
      <trkpt lat="44.90153" lon="-0.48004">
        <ele>20.81</ele>
        <time>2017-02-12T09:56:11Z</time>
      </trkpt>
      <trkpt lat="44.90164" lon="-0.4802">
        <ele>20.81</ele>
        <time>2017-02-12T09:56:23Z</time>
      </trkpt>
      <trkpt lat="44.90168" lon="-0.48026">
        <ele>20.81</ele>
        <time>2017-02-12T09:56:28Z</time>
      </trkpt>
      <trkpt lat="44.90171" lon="-0.48028">
        <ele>20.81</ele>
        <time>2017-02-12T09:56:30Z</time>
      </trkpt>
      <trkpt lat="44.90186" lon="-0.4805">
        <ele>20.32</ele>
        <time>2017-02-12T09:56:46Z</time>
      </trkpt>
      <trkpt lat="44.90188" lon="-0.48052">
        <ele>20.32</ele>
        <time>2017-02-12T09:56:48Z</time>
      </trkpt>
      <trkpt lat="44.90205" lon="-0.48072">
        <ele>20.32</ele>
        <time>2017-02-12T09:57:05Z</time>
      </trkpt>
      <trkpt lat="44.90212" lon="-0.48081">
        <ele>20.32</ele>
        <time>2017-02-12T09:57:12Z</time>
      </trkpt>
      <trkpt lat="44.90216" lon="-0.48088">
        <ele>20.32</ele>
        <time>2017-02-12T09:57:17Z</time>
      </trkpt>
      <trkpt lat="44.9023" lon="-0.48106">
        <ele>19.84</ele>
        <time>2017-02-12T09:57:32Z</time>
      </trkpt>
      <trkpt lat="44.90243" lon="-0.48119">
        <ele>19.84</ele>
        <time>2017-02-12T09:57:44Z</time>
      </trkpt>
      <trkpt lat="44.90256" lon="-0.48136">
        <ele>19.84</ele>
        <time>2017-02-12T09:57:59Z</time>
      </trkpt>
      <trkpt lat="44.9027" lon="-0.48148">
        <ele>18.88</ele>
        <time>2017-02-12T09:58:11Z</time>
      </trkpt>
      <trkpt lat="44.90284" lon="-0.4816">
        <ele>18.88</ele>
        <time>2017-02-12T09:58:24Z</time>
      </trkpt>
      <trkpt lat="44.903" lon="-0.48171">
        <ele>18.4</ele>
        <time>2017-02-12T09:58:38Z</time>
      </trkpt>
      <trkpt lat="44.90313" lon="-0.48187">
        <ele>18.4</ele>
        <time>2017-02-12T09:58:52Z</time>
      </trkpt>
      <trkpt lat="44.90315" lon="-0.48188">
        <ele>18.4</ele>
        <time>2017-02-12T09:58:54Z</time>
      </trkpt>
      <trkpt lat="44.90327" lon="-0.48207">
        <ele>17.92</ele>
        <time>2017-02-12T09:59:08Z</time>
      </trkpt>
      <trkpt lat="44.90329" lon="-0.48212">
        <ele>17.92</ele>
        <time>2017-02-12T09:59:11Z</time>
      </trkpt>
      <trkpt lat="44.90343" lon="-0.48231">
        <ele>16.96</ele>
        <time>2017-02-12T09:59:26Z</time>
      </trkpt>
      <trkpt lat="44.90345" lon="-0.48234">
        <ele>16.96</ele>
        <time>2017-02-12T09:59:29Z</time>
      </trkpt>
      <trkpt lat="44.90356" lon="-0.48254">
        <ele>16.48</ele>
        <time>2017-02-12T09:59:42Z</time>
      </trkpt>
      <trkpt lat="44.90367" lon="-0.48269">
        <ele>16.96</ele>
        <time>2017-02-12T09:59:54Z</time>
      </trkpt>
      <trkpt lat="44.9037" lon="-0.48273">
        <ele>16</ele>
        <time>2017-02-12T09:59:57Z</time>
      </trkpt>
      <trkpt lat="44.90381" lon="-0.48283">
        <ele>16</ele>
        <time>2017-02-12T10:00:08Z</time>
      </trkpt>
      <trkpt lat="44.90392" lon="-0.48293">
        <ele>15.04</ele>
        <time>2017-02-12T10:00:19Z</time>
      </trkpt>
      <trkpt lat="44.90393" lon="-0.48296">
        <ele>15.04</ele>
        <time>2017-02-12T10:00:22Z</time>
      </trkpt>
      <trkpt lat="44.90392" lon="-0.48301">
        <ele>14.56</ele>
        <time>2017-02-12T10:00:25Z</time>
      </trkpt>
      <trkpt lat="44.90388" lon="-0.48306">
        <ele>14.08</ele>
        <time>2017-02-12T10:00:30Z</time>
      </trkpt>
      <trkpt lat="44.90384" lon="-0.48312">
        <ele>13.6</ele>
        <time>2017-02-12T10:00:38Z</time>
      </trkpt>
      <trkpt lat="44.90374" lon="-0.48322">
        <ele>13.6</ele>
        <time>2017-02-12T10:00:51Z</time>
      </trkpt>
      <trkpt lat="44.90363" lon="-0.48337">
        <ele>13.12</ele>
        <time>2017-02-12T10:01:03Z</time>
      </trkpt>
      <trkpt lat="44.9035" lon="-0.48354">
        <ele>12.63</ele>
        <time>2017-02-12T10:01:17Z</time>
      </trkpt>
      <trkpt lat="44.90336" lon="-0.4837">
        <ele>12.63</ele>
        <time>2017-02-12T10:01:33Z</time>
      </trkpt>
      <trkpt lat="44.90324" lon="-0.48384">
        <ele>12.15</ele>
        <time>2017-02-12T10:01:47Z</time>
      </trkpt>
      <trkpt lat="44.90322" lon="-0.48391">
        <ele>12.15</ele>
        <time>2017-02-12T10:01:52Z</time>
      </trkpt>
      <trkpt lat="44.90324" lon="-0.48401">
        <ele>12.15</ele>
        <time>2017-02-12T10:01:57Z</time>
      </trkpt>
      <trkpt lat="44.90321" lon="-0.48405">
        <ele>12.15</ele>
        <time>2017-02-12T10:02:01Z</time>
      </trkpt>
      <trkpt lat="44.90336" lon="-0.4842">
        <ele>12.15</ele>
        <time>2017-02-12T10:02:17Z</time>
      </trkpt>
      <trkpt lat="44.90343" lon="-0.48434">
        <ele>12.15</ele>
        <time>2017-02-12T10:02:33Z</time>
      </trkpt>
      <trkpt lat="44.90341" lon="-0.48439">
        <ele>12.15</ele>
        <time>2017-02-12T10:02:48Z</time>
      </trkpt>
      <trkpt lat="44.90341" lon="-0.4844">
        <ele>12.15</ele>
        <time>2017-02-12T10:03:02Z</time>
      </trkpt>
      <trkpt lat="44.90341" lon="-0.48441">
        <ele>12.15</ele>
        <time>2017-02-12T10:03:23Z</time>
      </trkpt>
      <trkpt lat="44.90338" lon="-0.48443">
        <ele>12.15</ele>
        <time>2017-02-12T10:03:49Z</time>
      </trkpt>
      <trkpt lat="44.90338" lon="-0.48444">
        <ele>12.15</ele>
        <time>2017-02-12T10:03:50Z</time>
      </trkpt>
      <trkpt lat="44.90338" lon="-0.48446">
        <ele>12.15</ele>
        <time>2017-02-12T10:03:52Z</time>
      </trkpt>
      <trkpt lat="44.90339" lon="-0.48446">
        <ele>12.15</ele>
        <time>2017-02-12T10:03:55Z</time>
      </trkpt>
      <trkpt lat="44.9035" lon="-0.48455">
        <ele>12.15</ele>
        <time>2017-02-12T10:04:09Z</time>
      </trkpt>
      <trkpt lat="44.90365" lon="-0.48467">
        <ele>12.15</ele>
        <time>2017-02-12T10:04:25Z</time>
      </trkpt>
      <trkpt lat="44.90383" lon="-0.48482">
        <ele>11.67</ele>
        <time>2017-02-12T10:04:42Z</time>
      </trkpt>
      <trkpt lat="44.90397" lon="-0.48492">
        <ele>11.19</ele>
        <time>2017-02-12T10:04:56Z</time>
      </trkpt>
      <trkpt lat="44.90411" lon="-0.48503">
        <ele>11.19</ele>
        <time>2017-02-12T10:05:10Z</time>
      </trkpt>
      <trkpt lat="44.90421" lon="-0.4851">
        <ele>10.71</ele>
        <time>2017-02-12T10:05:22Z</time>
      </trkpt>
      <trkpt lat="44.90432" lon="-0.48519">
        <ele>10.71</ele>
        <time>2017-02-12T10:05:35Z</time>
      </trkpt>
      <trkpt lat="44.90442" lon="-0.48529">
        <ele>10.71</ele>
        <time>2017-02-12T10:05:48Z</time>
      </trkpt>
      <trkpt lat="44.90458" lon="-0.48541">
        <ele>10.71</ele>
        <time>2017-02-12T10:06:06Z</time>
      </trkpt>
      <trkpt lat="44.9046" lon="-0.48543">
        <ele>10.71</ele>
        <time>2017-02-12T10:06:08Z</time>
      </trkpt>
      <trkpt lat="44.90474" lon="-0.48552">
        <ele>10.71</ele>
        <time>2017-02-12T10:06:23Z</time>
      </trkpt>
      <trkpt lat="44.90494" lon="-0.48568">
        <ele>10.71</ele>
        <time>2017-02-12T10:06:39Z</time>
      </trkpt>
      <trkpt lat="44.90508" lon="-0.48579">
        <ele>10.71</ele>
        <time>2017-02-12T10:06:52Z</time>
      </trkpt>
      <trkpt lat="44.90521" lon="-0.48588">
        <ele>10.71</ele>
        <time>2017-02-12T10:07:04Z</time>
      </trkpt>
      <trkpt lat="44.90529" lon="-0.48592">
        <ele>10.71</ele>
        <time>2017-02-12T10:07:12Z</time>
      </trkpt>
      <trkpt lat="44.90536" lon="-0.48592">
        <ele>10.71</ele>
        <time>2017-02-12T10:07:20Z</time>
      </trkpt>
      <trkpt lat="44.90538" lon="-0.48594">
        <ele>10.71</ele>
        <time>2017-02-12T10:07:22Z</time>
      </trkpt>
      <trkpt lat="44.90545" lon="-0.48596">
        <ele>10.71</ele>
        <time>2017-02-12T10:07:28Z</time>
      </trkpt>
      <trkpt lat="44.90553" lon="-0.48599">
        <ele>10.71</ele>
        <time>2017-02-12T10:07:36Z</time>
      </trkpt>
      <trkpt lat="44.90571" lon="-0.48594">
        <ele>10.71</ele>
        <time>2017-02-12T10:07:51Z</time>
      </trkpt>
      <trkpt lat="44.90582" lon="-0.48584">
        <ele>10.71</ele>
        <time>2017-02-12T10:08:03Z</time>
      </trkpt>
      <trkpt lat="44.9059" lon="-0.48562">
        <ele>10.71</ele>
        <time>2017-02-12T10:08:17Z</time>
      </trkpt>
      <trkpt lat="44.90588" lon="-0.48541">
        <ele>11.67</ele>
        <time>2017-02-12T10:08:30Z</time>
      </trkpt>
      <trkpt lat="44.90588" lon="-0.48536">
        <ele>11.67</ele>
        <time>2017-02-12T10:08:33Z</time>
      </trkpt>
      <trkpt lat="44.90595" lon="-0.48525">
        <ele>11.67</ele>
        <time>2017-02-12T10:08:42Z</time>
      </trkpt>
      <trkpt lat="44.90609" lon="-0.4852">
        <ele>12.15</ele>
        <time>2017-02-12T10:08:57Z</time>
      </trkpt>
      <trkpt lat="44.90622" lon="-0.48513">
        <ele>12.15</ele>
        <time>2017-02-12T10:09:09Z</time>
      </trkpt>
      <trkpt lat="44.90638" lon="-0.4851">
        <ele>12.15</ele>
        <time>2017-02-12T10:09:23Z</time>
      </trkpt>
      <trkpt lat="44.90653" lon="-0.48503">
        <ele>12.15</ele>
        <time>2017-02-12T10:09:38Z</time>
      </trkpt>
      <trkpt lat="44.90665" lon="-0.48499">
        <ele>12.15</ele>
        <time>2017-02-12T10:09:49Z</time>
      </trkpt>
      <trkpt lat="44.9068" lon="-0.48491">
        <ele>12.15</ele>
        <time>2017-02-12T10:10:03Z</time>
      </trkpt>
      <trkpt lat="44.90691" lon="-0.48487">
        <ele>12.15</ele>
        <time>2017-02-12T10:10:13Z</time>
      </trkpt>
      <trkpt lat="44.90693" lon="-0.48488">
        <ele>12.15</ele>
        <time>2017-02-12T10:10:15Z</time>
      </trkpt>
      <trkpt lat="44.90704" lon="-0.48494">
        <ele>12.15</ele>
        <time>2017-02-12T10:10:27Z</time>
      </trkpt>
      <trkpt lat="44.90721" lon="-0.48505">
        <ele>12.15</ele>
        <time>2017-02-12T10:10:43Z</time>
      </trkpt>
      <trkpt lat="44.90729" lon="-0.48509">
        <ele>12.15</ele>
        <time>2017-02-12T10:10:53Z</time>
      </trkpt>
      <trkpt lat="44.90736" lon="-0.48513">
        <ele>12.15</ele>
        <time>2017-02-12T10:11:01Z</time>
      </trkpt>
      <trkpt lat="44.90743" lon="-0.48523">
        <ele>12.15</ele>
        <time>2017-02-12T10:11:10Z</time>
      </trkpt>
      <trkpt lat="44.90747" lon="-0.48524">
        <ele>12.15</ele>
        <time>2017-02-12T10:11:14Z</time>
      </trkpt>
      <trkpt lat="44.9076" lon="-0.48519">
        <ele>12.15</ele>
        <time>2017-02-12T10:11:29Z</time>
      </trkpt>
      <trkpt lat="44.90761" lon="-0.48513">
        <ele>12.15</ele>
        <time>2017-02-12T10:11:45Z</time>
      </trkpt>
      <trkpt lat="44.90762" lon="-0.48509">
        <ele>12.15</ele>
        <time>2017-02-12T10:12:04Z</time>
      </trkpt>
      <trkpt lat="44.90762" lon="-0.48508">
        <ele>12.15</ele>
        <time>2017-02-12T10:12:07Z</time>
      </trkpt>
      <trkpt lat="44.90763" lon="-0.48504">
        <ele>12.15</ele>
        <time>2017-02-12T10:12:10Z</time>
      </trkpt>
      <trkpt lat="44.90763" lon="-0.48482">
        <ele>12.15</ele>
        <time>2017-02-12T10:12:24Z</time>
      </trkpt>
      <trkpt lat="44.90763" lon="-0.48459">
        <ele>12.15</ele>
        <time>2017-02-12T10:12:38Z</time>
      </trkpt>
      <trkpt lat="44.9076" lon="-0.48439">
        <ele>12.15</ele>
        <time>2017-02-12T10:12:52Z</time>
      </trkpt>
      <trkpt lat="44.90758" lon="-0.48424">
        <ele>12.15</ele>
        <time>2017-02-12T10:13:04Z</time>
      </trkpt>
      <trkpt lat="44.90756" lon="-0.484">
        <ele>12.15</ele>
        <time>2017-02-12T10:13:18Z</time>
      </trkpt>
      <trkpt lat="44.90753" lon="-0.48377">
        <ele>12.15</ele>
        <time>2017-02-12T10:13:32Z</time>
      </trkpt>
      <trkpt lat="44.9075" lon="-0.48353">
        <ele>12.15</ele>
        <time>2017-02-12T10:13:48Z</time>
      </trkpt>
      <trkpt lat="44.90747" lon="-0.4834">
        <ele>12.15</ele>
        <time>2017-02-12T10:13:59Z</time>
      </trkpt>
      <trkpt lat="44.90746" lon="-0.48337">
        <ele>12.15</ele>
        <time>2017-02-12T10:14:04Z</time>
      </trkpt>
      <trkpt lat="44.90745" lon="-0.48332">
        <ele>11.67</ele>
        <time>2017-02-12T10:14:07Z</time>
      </trkpt>
      <trkpt lat="44.90746" lon="-0.48314">
        <ele>11.67</ele>
        <time>2017-02-12T10:14:18Z</time>
      </trkpt>
      <trkpt lat="44.90746" lon="-0.48296">
        <ele>12.15</ele>
        <time>2017-02-12T10:14:31Z</time>
      </trkpt>
      <trkpt lat="44.90745" lon="-0.48278">
        <ele>12.15</ele>
        <time>2017-02-12T10:14:44Z</time>
      </trkpt>
      <trkpt lat="44.90747" lon="-0.4827">
        <ele>12.15</ele>
        <time>2017-02-12T10:14:57Z</time>
      </trkpt>
      <trkpt lat="44.90745" lon="-0.48258">
        <ele>12.15</ele>
        <time>2017-02-12T10:15:08Z</time>
      </trkpt>
      <trkpt lat="44.90743" lon="-0.48249">
        <ele>12.15</ele>
        <time>2017-02-12T10:15:15Z</time>
      </trkpt>
      <trkpt lat="44.90742" lon="-0.48227">
        <ele>12.15</ele>
        <time>2017-02-12T10:15:29Z</time>
      </trkpt>
      <trkpt lat="44.90741" lon="-0.48209">
        <ele>12.15</ele>
        <time>2017-02-12T10:15:39Z</time>
      </trkpt>
      <trkpt lat="44.90738" lon="-0.4819">
        <ele>12.15</ele>
        <time>2017-02-12T10:15:52Z</time>
      </trkpt>
      <trkpt lat="44.90737" lon="-0.48177">
        <ele>12.15</ele>
        <time>2017-02-12T10:16:04Z</time>
      </trkpt>
      <trkpt lat="44.90739" lon="-0.48156">
        <ele>12.15</ele>
        <time>2017-02-12T10:16:19Z</time>
      </trkpt>
      <trkpt lat="44.90739" lon="-0.48141">
        <ele>11.67</ele>
        <time>2017-02-12T10:16:33Z</time>
      </trkpt>
      <trkpt lat="44.90736" lon="-0.48124">
        <ele>11.67</ele>
        <time>2017-02-12T10:16:46Z</time>
      </trkpt>
      <trkpt lat="44.90735" lon="-0.48114">
        <ele>11.67</ele>
        <time>2017-02-12T10:16:52Z</time>
      </trkpt>
      <trkpt lat="44.90736" lon="-0.48102">
        <ele>11.67</ele>
        <time>2017-02-12T10:16:59Z</time>
      </trkpt>
      <trkpt lat="44.90738" lon="-0.48087">
        <ele>11.19</ele>
        <time>2017-02-12T10:17:08Z</time>
      </trkpt>
      <trkpt lat="44.9074" lon="-0.48061">
        <ele>10.23</ele>
        <time>2017-02-12T10:17:24Z</time>
      </trkpt>
      <trkpt lat="44.90739" lon="-0.48038">
        <ele>10.23</ele>
        <time>2017-02-12T10:17:38Z</time>
      </trkpt>
      <trkpt lat="44.90738" lon="-0.48016">
        <ele>9.75</ele>
        <time>2017-02-12T10:17:52Z</time>
      </trkpt>
      <trkpt lat="44.90735" lon="-0.47999">
        <ele>9.75</ele>
        <time>2017-02-12T10:18:06Z</time>
      </trkpt>
      <trkpt lat="44.90734" lon="-0.47977">
        <ele>9.75</ele>
        <time>2017-02-12T10:18:21Z</time>
      </trkpt>
      <trkpt lat="44.90735" lon="-0.4796">
        <ele>9.27</ele>
        <time>2017-02-12T10:18:35Z</time>
      </trkpt>
      <trkpt lat="44.90736" lon="-0.4796">
        <ele>9.27</ele>
        <time>2017-02-12T10:18:37Z</time>
      </trkpt>
      <trkpt lat="44.90743" lon="-0.47961">
        <ele>8.79</ele>
        <time>2017-02-12T10:18:44Z</time>
      </trkpt>
      <trkpt lat="44.9075" lon="-0.4796">
        <ele>8.31</ele>
        <time>2017-02-12T10:18:53Z</time>
      </trkpt>
      <trkpt lat="44.90762" lon="-0.47968">
        <ele>8.31</ele>
        <time>2017-02-12T10:19:07Z</time>
      </trkpt>
      <trkpt lat="44.90766" lon="-0.47966">
        <ele>7.83</ele>
        <time>2017-02-12T10:19:28Z</time>
      </trkpt>
      <trkpt lat="44.90771" lon="-0.47966">
        <ele>7.83</ele>
        <time>2017-02-12T10:19:35Z</time>
      </trkpt>
      <trkpt lat="44.90783" lon="-0.4797">
        <ele>7.83</ele>
        <time>2017-02-12T10:19:47Z</time>
      </trkpt>
      <trkpt lat="44.908" lon="-0.47982">
        <ele>7.83</ele>
        <time>2017-02-12T10:20:03Z</time>
      </trkpt>
      <trkpt lat="44.90815" lon="-0.47992">
        <ele>7.83</ele>
        <time>2017-02-12T10:20:17Z</time>
      </trkpt>
      <trkpt lat="44.9083" lon="-0.48003">
        <ele>7.83</ele>
        <time>2017-02-12T10:20:31Z</time>
      </trkpt>
      <trkpt lat="44.90844" lon="-0.48015">
        <ele>7.83</ele>
        <time>2017-02-12T10:20:44Z</time>
      </trkpt>
      <trkpt lat="44.90857" lon="-0.48019">
        <ele>7.35</ele>
        <time>2017-02-12T10:20:55Z</time>
      </trkpt>
      <trkpt lat="44.90861" lon="-0.48019">
        <ele>7.35</ele>
        <time>2017-02-12T10:20:58Z</time>
      </trkpt>
      <trkpt lat="44.90867" lon="-0.48019">
        <ele>7.35</ele>
        <time>2017-02-12T10:21:03Z</time>
      </trkpt>
      <trkpt lat="44.90884" lon="-0.48012">
        <ele>7.35</ele>
        <time>2017-02-12T10:21:16Z</time>
      </trkpt>
      <trkpt lat="44.90891" lon="-0.48012">
        <ele>7.35</ele>
        <time>2017-02-12T10:21:22Z</time>
      </trkpt>
      <trkpt lat="44.9091" lon="-0.48023">
        <ele>7.35</ele>
        <time>2017-02-12T10:21:39Z</time>
      </trkpt>
      <trkpt lat="44.90925" lon="-0.48033">
        <ele>7.35</ele>
        <time>2017-02-12T10:21:53Z</time>
      </trkpt>
      <trkpt lat="44.90941" lon="-0.4803">
        <ele>7.35</ele>
        <time>2017-02-12T10:22:07Z</time>
      </trkpt>
      <trkpt lat="44.90948" lon="-0.48027">
        <ele>7.35</ele>
        <time>2017-02-12T10:22:19Z</time>
      </trkpt>
      <trkpt lat="44.90951" lon="-0.48021">
        <ele>7.35</ele>
        <time>2017-02-12T10:22:28Z</time>
      </trkpt>
      <trkpt lat="44.90957" lon="-0.48013">
        <ele>7.35</ele>
        <time>2017-02-12T10:22:36Z</time>
      </trkpt>
      <trkpt lat="44.90963" lon="-0.48008">
        <ele>7.35</ele>
        <time>2017-02-12T10:22:52Z</time>
      </trkpt>
      <trkpt lat="44.90966" lon="-0.48005">
        <ele>7.35</ele>
        <time>2017-02-12T10:23:04Z</time>
      </trkpt>
      <trkpt lat="44.90964" lon="-0.48008">
        <ele>7.35</ele>
        <time>2017-02-12T10:23:19Z</time>
      </trkpt>
      <trkpt lat="44.90967" lon="-0.48007">
        <ele>7.35</ele>
        <time>2017-02-12T10:23:34Z</time>
      </trkpt>
      <trkpt lat="44.90968" lon="-0.48007">
        <ele>7.35</ele>
        <time>2017-02-12T10:23:55Z</time>
      </trkpt>
      <trkpt lat="44.90977" lon="-0.48007">
        <ele>7.35</ele>
        <time>2017-02-12T10:24:10Z</time>
      </trkpt>
      <trkpt lat="44.9099" lon="-0.48007">
        <ele>7.35</ele>
        <time>2017-02-12T10:24:26Z</time>
      </trkpt>
      <trkpt lat="44.90995" lon="-0.48007">
        <ele>6.87</ele>
        <time>2017-02-12T10:24:41Z</time>
      </trkpt>
      <trkpt lat="44.91003" lon="-0.48">
        <ele>6.87</ele>
        <time>2017-02-12T10:24:53Z</time>
      </trkpt>
      <trkpt lat="44.91009" lon="-0.47986">
        <ele>6.87</ele>
        <time>2017-02-12T10:25:06Z</time>
      </trkpt>
      <trkpt lat="44.91011" lon="-0.47983">
        <ele>6.87</ele>
        <time>2017-02-12T10:25:08Z</time>
      </trkpt>
      <trkpt lat="44.91016" lon="-0.47971">
        <ele>6.87</ele>
        <time>2017-02-12T10:25:16Z</time>
      </trkpt>
      <trkpt lat="44.91017" lon="-0.47964">
        <ele>6.87</ele>
        <time>2017-02-12T10:25:20Z</time>
      </trkpt>
      <trkpt lat="44.91018" lon="-0.47959">
        <ele>6.87</ele>
        <time>2017-02-12T10:25:23Z</time>
      </trkpt>
      <trkpt lat="44.9102" lon="-0.47947">
        <ele>7.83</ele>
        <time>2017-02-12T10:25:31Z</time>
      </trkpt>
      <trkpt lat="44.91024" lon="-0.47935">
        <ele>8.31</ele>
        <time>2017-02-12T10:25:39Z</time>
      </trkpt>
      <trkpt lat="44.91026" lon="-0.47927">
        <ele>8.31</ele>
        <time>2017-02-12T10:25:44Z</time>
      </trkpt>
      <trkpt lat="44.91029" lon="-0.47913">
        <ele>8.31</ele>
        <time>2017-02-12T10:25:53Z</time>
      </trkpt>
      <trkpt lat="44.9103" lon="-0.4791">
        <ele>8.79</ele>
        <time>2017-02-12T10:25:55Z</time>
      </trkpt>
      <trkpt lat="44.91036" lon="-0.47896">
        <ele>8.79</ele>
        <time>2017-02-12T10:26:07Z</time>
      </trkpt>
      <trkpt lat="44.9104" lon="-0.47883">
        <ele>9.27</ele>
        <time>2017-02-12T10:26:18Z</time>
      </trkpt>
      <trkpt lat="44.91045" lon="-0.47866">
        <ele>9.75</ele>
        <time>2017-02-12T10:26:32Z</time>
      </trkpt>
      <trkpt lat="44.91051" lon="-0.47854">
        <ele>10.23</ele>
        <time>2017-02-12T10:26:44Z</time>
      </trkpt>
      <trkpt lat="44.91055" lon="-0.47849">
        <ele>10.71</ele>
        <time>2017-02-12T10:26:59Z</time>
      </trkpt>
      <trkpt lat="44.91053" lon="-0.4785">
        <ele>10.71</ele>
        <time>2017-02-12T10:27:18Z</time>
      </trkpt>
      <trkpt lat="44.91052" lon="-0.47852">
        <ele>11.19</ele>
        <time>2017-02-12T10:27:42Z</time>
      </trkpt>
      <trkpt lat="44.9105" lon="-0.47852">
        <ele>11.19</ele>
        <time>2017-02-12T10:28:05Z</time>
      </trkpt>
      <trkpt lat="44.91054" lon="-0.47852">
        <ele>11.19</ele>
        <time>2017-02-12T10:28:29Z</time>
      </trkpt>
      <trkpt lat="44.91055" lon="-0.47852">
        <ele>11.19</ele>
        <time>2017-02-12T10:28:30Z</time>
      </trkpt>
      <trkpt lat="44.91066" lon="-0.47856">
        <ele>11.19</ele>
        <time>2017-02-12T10:28:42Z</time>
      </trkpt>
      <trkpt lat="44.91084" lon="-0.4786">
        <ele>11.19</ele>
        <time>2017-02-12T10:28:58Z</time>
      </trkpt>
      <trkpt lat="44.91097" lon="-0.47865">
        <ele>11.19</ele>
        <time>2017-02-12T10:29:10Z</time>
      </trkpt>
      <trkpt lat="44.91112" lon="-0.47869">
        <ele>10.23</ele>
        <time>2017-02-12T10:29:23Z</time>
      </trkpt>
      <trkpt lat="44.91128" lon="-0.47873">
        <ele>10.23</ele>
        <time>2017-02-12T10:29:37Z</time>
      </trkpt>
      <trkpt lat="44.91142" lon="-0.47876">
        <ele>9.75</ele>
        <time>2017-02-12T10:29:50Z</time>
      </trkpt>
      <trkpt lat="44.91156" lon="-0.4788">
        <ele>9.75</ele>
        <time>2017-02-12T10:30:03Z</time>
      </trkpt>
      <trkpt lat="44.91165" lon="-0.47879">
        <ele>9.75</ele>
        <time>2017-02-12T10:30:12Z</time>
      </trkpt>
      <trkpt lat="44.91168" lon="-0.47876">
        <ele>9.75</ele>
        <time>2017-02-12T10:30:15Z</time>
      </trkpt>
      <trkpt lat="44.91177" lon="-0.47848">
        <ele>9.27</ele>
        <time>2017-02-12T10:30:32Z</time>
      </trkpt>
      <trkpt lat="44.91182" lon="-0.4783">
        <ele>10.23</ele>
        <time>2017-02-12T10:30:44Z</time>
      </trkpt>
      <trkpt lat="44.91188" lon="-0.47809">
        <ele>10.71</ele>
        <time>2017-02-12T10:30:57Z</time>
      </trkpt>
      <trkpt lat="44.91194" lon="-0.47784">
        <ele>11.19</ele>
        <time>2017-02-12T10:31:12Z</time>
      </trkpt>
      <trkpt lat="44.91199" lon="-0.47765">
        <ele>11.19</ele>
        <time>2017-02-12T10:31:25Z</time>
      </trkpt>
      <trkpt lat="44.91202" lon="-0.47746">
        <ele>12.15</ele>
        <time>2017-02-12T10:31:37Z</time>
      </trkpt>
      <trkpt lat="44.91207" lon="-0.47731">
        <ele>12.15</ele>
        <time>2017-02-12T10:31:46Z</time>
      </trkpt>
      <trkpt lat="44.91212" lon="-0.47709">
        <ele>12.63</ele>
        <time>2017-02-12T10:32:01Z</time>
      </trkpt>
      <trkpt lat="44.91217" lon="-0.47688">
        <ele>13.6</ele>
        <time>2017-02-12T10:32:14Z</time>
      </trkpt>
      <trkpt lat="44.91221" lon="-0.47669">
        <ele>14.08</ele>
        <time>2017-02-12T10:32:27Z</time>
      </trkpt>
      <trkpt lat="44.91226" lon="-0.47648">
        <ele>14.08</ele>
        <time>2017-02-12T10:32:41Z</time>
      </trkpt>
      <trkpt lat="44.91232" lon="-0.47626">
        <ele>15.04</ele>
        <time>2017-02-12T10:32:55Z</time>
      </trkpt>
      <trkpt lat="44.91237" lon="-0.47603">
        <ele>15.52</ele>
        <time>2017-02-12T10:33:09Z</time>
      </trkpt>
      <trkpt lat="44.91243" lon="-0.47579">
        <ele>16</ele>
        <time>2017-02-12T10:33:24Z</time>
      </trkpt>
      <trkpt lat="44.91247" lon="-0.47562">
        <ele>16</ele>
        <time>2017-02-12T10:33:36Z</time>
      </trkpt>
      <trkpt lat="44.91252" lon="-0.47544">
        <ele>16</ele>
        <time>2017-02-12T10:33:48Z</time>
      </trkpt>
      <trkpt lat="44.91257" lon="-0.47524">
        <ele>16.48</ele>
        <time>2017-02-12T10:34:00Z</time>
      </trkpt>
      <trkpt lat="44.91264" lon="-0.47519">
        <ele>16.96</ele>
        <time>2017-02-12T10:34:12Z</time>
      </trkpt>
      <trkpt lat="44.9127" lon="-0.47518">
        <ele>16.96</ele>
        <time>2017-02-12T10:34:24Z</time>
      </trkpt>
      <trkpt lat="44.91271" lon="-0.47518">
        <ele>16.96</ele>
        <time>2017-02-12T10:34:25Z</time>
      </trkpt>
      <trkpt lat="44.91279" lon="-0.47513">
        <ele>16.96</ele>
        <time>2017-02-12T10:34:38Z</time>
      </trkpt>
      <trkpt lat="44.91281" lon="-0.47512">
        <ele>15.52</ele>
        <time>2017-02-12T10:34:53Z</time>
      </trkpt>
      <trkpt lat="44.91284" lon="-0.47507">
        <ele>15.52</ele>
        <time>2017-02-12T10:35:12Z</time>
      </trkpt>
      <trkpt lat="44.91295" lon="-0.47498">
        <ele>15.52</ele>
        <time>2017-02-12T10:35:24Z</time>
      </trkpt>
      <trkpt lat="44.91307" lon="-0.4749">
        <ele>15.52</ele>
        <time>2017-02-12T10:35:37Z</time>
      </trkpt>
      <trkpt lat="44.91309" lon="-0.47489">
        <ele>15.52</ele>
        <time>2017-02-12T10:35:39Z</time>
      </trkpt>
      <trkpt lat="44.91317" lon="-0.47471">
        <ele>15.52</ele>
        <time>2017-02-12T10:35:50Z</time>
      </trkpt>
      <trkpt lat="44.91324" lon="-0.47447">
        <ele>15.52</ele>
        <time>2017-02-12T10:36:05Z</time>
      </trkpt>
      <trkpt lat="44.91327" lon="-0.47427">
        <ele>15.52</ele>
        <time>2017-02-12T10:36:17Z</time>
      </trkpt>
      <trkpt lat="44.91329" lon="-0.47405">
        <ele>15.52</ele>
        <time>2017-02-12T10:36:30Z</time>
      </trkpt>
      <trkpt lat="44.91333" lon="-0.47382">
        <ele>15.52</ele>
        <time>2017-02-12T10:36:44Z</time>
      </trkpt>
      <trkpt lat="44.91336" lon="-0.47358">
        <ele>15.52</ele>
        <time>2017-02-12T10:36:58Z</time>
      </trkpt>
      <trkpt lat="44.91337" lon="-0.47354">
        <ele>15.52</ele>
        <time>2017-02-12T10:37:01Z</time>
      </trkpt>
      <trkpt lat="44.91337" lon="-0.47346">
        <ele>15.52</ele>
        <time>2017-02-12T10:37:06Z</time>
      </trkpt>
      <trkpt lat="44.91339" lon="-0.47333">
        <ele>15.52</ele>
        <time>2017-02-12T10:37:14Z</time>
      </trkpt>
      <trkpt lat="44.91339" lon="-0.47326">
        <ele>15.52</ele>
        <time>2017-02-12T10:37:18Z</time>
      </trkpt>
      <trkpt lat="44.91339" lon="-0.47313">
        <ele>15.52</ele>
        <time>2017-02-12T10:37:27Z</time>
      </trkpt>
      <trkpt lat="44.91339" lon="-0.47303">
        <ele>15.52</ele>
        <time>2017-02-12T10:37:35Z</time>
      </trkpt>
      <trkpt lat="44.91337" lon="-0.47283">
        <ele>15.52</ele>
        <time>2017-02-12T10:37:49Z</time>
      </trkpt>
      <trkpt lat="44.91336" lon="-0.4728">
        <ele>15.52</ele>
        <time>2017-02-12T10:37:51Z</time>
      </trkpt>
      <trkpt lat="44.91336" lon="-0.47273">
        <ele>15.52</ele>
        <time>2017-02-12T10:37:55Z</time>
      </trkpt>
      <trkpt lat="44.91332" lon="-0.4725">
        <ele>15.52</ele>
        <time>2017-02-12T10:38:09Z</time>
      </trkpt>
      <trkpt lat="44.91329" lon="-0.47223">
        <ele>15.52</ele>
        <time>2017-02-12T10:38:23Z</time>
      </trkpt>
      <trkpt lat="44.91327" lon="-0.47207">
        <ele>15.52</ele>
        <time>2017-02-12T10:38:34Z</time>
      </trkpt>
      <trkpt lat="44.91324" lon="-0.47183">
        <ele>15.52</ele>
        <time>2017-02-12T10:38:50Z</time>
      </trkpt>
      <trkpt lat="44.91324" lon="-0.47162">
        <ele>16.48</ele>
        <time>2017-02-12T10:39:04Z</time>
      </trkpt>
      <trkpt lat="44.9132" lon="-0.47142">
        <ele>16.48</ele>
        <time>2017-02-12T10:39:18Z</time>
      </trkpt>
      <trkpt lat="44.9132" lon="-0.4712">
        <ele>16.48</ele>
        <time>2017-02-12T10:39:33Z</time>
      </trkpt>
      <trkpt lat="44.91319" lon="-0.47114">
        <ele>16.48</ele>
        <time>2017-02-12T10:39:37Z</time>
      </trkpt>
      <trkpt lat="44.91315" lon="-0.47094">
        <ele>16.48</ele>
        <time>2017-02-12T10:39:53Z</time>
      </trkpt>
      <trkpt lat="44.91313" lon="-0.47069">
        <ele>16.48</ele>
        <time>2017-02-12T10:40:09Z</time>
      </trkpt>
      <trkpt lat="44.91312" lon="-0.47052">
        <ele>16.48</ele>
        <time>2017-02-12T10:40:23Z</time>
      </trkpt>
      <trkpt lat="44.9131" lon="-0.47044">
        <ele>16.48</ele>
        <time>2017-02-12T10:40:28Z</time>
      </trkpt>
      <trkpt lat="44.91309" lon="-0.47021">
        <ele>16.48</ele>
        <time>2017-02-12T10:40:41Z</time>
      </trkpt>
      <trkpt lat="44.91307" lon="-0.47009">
        <ele>16.48</ele>
        <time>2017-02-12T10:40:49Z</time>
      </trkpt>
      <trkpt lat="44.91305" lon="-0.4699">
        <ele>16.48</ele>
        <time>2017-02-12T10:41:00Z</time>
      </trkpt>
      <trkpt lat="44.91305" lon="-0.46985">
        <ele>16.48</ele>
        <time>2017-02-12T10:41:03Z</time>
      </trkpt>
      <trkpt lat="44.91299" lon="-0.46978">
        <ele>16.48</ele>
        <time>2017-02-12T10:41:10Z</time>
      </trkpt>
      <trkpt lat="44.91282" lon="-0.46988">
        <ele>16.96</ele>
        <time>2017-02-12T10:41:26Z</time>
      </trkpt>
      <trkpt lat="44.91267" lon="-0.46996">
        <ele>17.44</ele>
        <time>2017-02-12T10:41:40Z</time>
      </trkpt>
      <trkpt lat="44.91264" lon="-0.46997">
        <ele>17.44</ele>
        <time>2017-02-12T10:41:43Z</time>
      </trkpt>
      <trkpt lat="44.91249" lon="-0.47007">
        <ele>17.92</ele>
        <time>2017-02-12T10:41:57Z</time>
      </trkpt>
      <trkpt lat="44.91241" lon="-0.47007">
        <ele>18.4</ele>
        <time>2017-02-12T10:42:11Z</time>
      </trkpt>
      <trkpt lat="44.91242" lon="-0.47011">
        <ele>17.92</ele>
        <time>2017-02-12T10:42:24Z</time>
      </trkpt>
      <trkpt lat="44.91241" lon="-0.47013">
        <ele>17.92</ele>
        <time>2017-02-12T10:42:43Z</time>
      </trkpt>
      <trkpt lat="44.91241" lon="-0.47013">
        <ele>17.92</ele>
        <time>2017-02-12T10:43:05Z</time>
      </trkpt>
      <trkpt lat="44.91241" lon="-0.47013">
        <ele>17.92</ele>
        <time>2017-02-12T10:43:32Z</time>
      </trkpt>
      <trkpt lat="44.91234" lon="-0.47012">
        <ele>17.92</ele>
        <time>2017-02-12T10:43:46Z</time>
      </trkpt>
      <trkpt lat="44.91219" lon="-0.47005">
        <ele>17.92</ele>
        <time>2017-02-12T10:44:00Z</time>
      </trkpt>
      <trkpt lat="44.91213" lon="-0.46997">
        <ele>17.92</ele>
        <time>2017-02-12T10:44:11Z</time>
      </trkpt>
      <trkpt lat="44.91208" lon="-0.46982">
        <ele>18.4</ele>
        <time>2017-02-12T10:44:22Z</time>
      </trkpt>
      <trkpt lat="44.91197" lon="-0.46965">
        <ele>18.88</ele>
        <time>2017-02-12T10:44:36Z</time>
      </trkpt>
      <trkpt lat="44.91193" lon="-0.46962">
        <ele>18.88</ele>
        <time>2017-02-12T10:44:40Z</time>
      </trkpt>
      <trkpt lat="44.91178" lon="-0.46958">
        <ele>19.36</ele>
        <time>2017-02-12T10:44:54Z</time>
      </trkpt>
      <trkpt lat="44.91162" lon="-0.46964">
        <ele>19.36</ele>
        <time>2017-02-12T10:45:08Z</time>
      </trkpt>
      <trkpt lat="44.91145" lon="-0.46973">
        <ele>19.84</ele>
        <time>2017-02-12T10:45:24Z</time>
      </trkpt>
      <trkpt lat="44.91132" lon="-0.46983">
        <ele>19.84</ele>
        <time>2017-02-12T10:45:37Z</time>
      </trkpt>
      <trkpt lat="44.91121" lon="-0.46995">
        <ele>19.84</ele>
        <time>2017-02-12T10:45:49Z</time>
      </trkpt>
      <trkpt lat="44.9111" lon="-0.47011">
        <ele>20.32</ele>
        <time>2017-02-12T10:46:02Z</time>
      </trkpt>
      <trkpt lat="44.91108" lon="-0.47014">
        <ele>20.32</ele>
        <time>2017-02-12T10:46:04Z</time>
      </trkpt>
      <trkpt lat="44.91099" lon="-0.47027">
        <ele>20.32</ele>
        <time>2017-02-12T10:46:15Z</time>
      </trkpt>
      <trkpt lat="44.91088" lon="-0.47044">
        <ele>20.32</ele>
        <time>2017-02-12T10:46:29Z</time>
      </trkpt>
      <trkpt lat="44.91077" lon="-0.47064">
        <ele>20.32</ele>
        <time>2017-02-12T10:46:44Z</time>
      </trkpt>
      <trkpt lat="44.91062" lon="-0.47081">
        <ele>20.81</ele>
        <time>2017-02-12T10:47:00Z</time>
      </trkpt>
      <trkpt lat="44.9106" lon="-0.47083">
        <ele>20.81</ele>
        <time>2017-02-12T10:47:02Z</time>
      </trkpt>
      <trkpt lat="44.91044" lon="-0.47086">
        <ele>21.77</ele>
        <time>2017-02-12T10:47:17Z</time>
      </trkpt>
      <trkpt lat="44.9104" lon="-0.47084">
        <ele>21.29</ele>
        <time>2017-02-12T10:47:21Z</time>
      </trkpt>
      <trkpt lat="44.91037" lon="-0.47082">
        <ele>21.29</ele>
        <time>2017-02-12T10:47:24Z</time>
      </trkpt>
      <trkpt lat="44.91026" lon="-0.47077">
        <ele>21.77</ele>
        <time>2017-02-12T10:47:36Z</time>
      </trkpt>
      <trkpt lat="44.91017" lon="-0.47073">
        <ele>21.77</ele>
        <time>2017-02-12T10:47:43Z</time>
      </trkpt>
      <trkpt lat="44.90999" lon="-0.47076">
        <ele>22.73</ele>
        <time>2017-02-12T10:47:58Z</time>
      </trkpt>
      <trkpt lat="44.90985" lon="-0.47086">
        <ele>22.25</ele>
        <time>2017-02-12T10:48:12Z</time>
      </trkpt>
      <trkpt lat="44.90974" lon="-0.47103">
        <ele>23.21</ele>
        <time>2017-02-12T10:48:25Z</time>
      </trkpt>
      <trkpt lat="44.90972" lon="-0.47108">
        <ele>23.21</ele>
        <time>2017-02-12T10:48:28Z</time>
      </trkpt>
      <trkpt lat="44.90971" lon="-0.47115">
        <ele>23.69</ele>
        <time>2017-02-12T10:48:32Z</time>
      </trkpt>
      <trkpt lat="44.90961" lon="-0.47134">
        <ele>25.13</ele>
        <time>2017-02-12T10:48:45Z</time>
      </trkpt>
      <trkpt lat="44.9095" lon="-0.47152">
        <ele>26.09</ele>
        <time>2017-02-12T10:48:59Z</time>
      </trkpt>
      <trkpt lat="44.90949" lon="-0.47153">
        <ele>26.57</ele>
        <time>2017-02-12T10:49:00Z</time>
      </trkpt>
      <trkpt lat="44.90945" lon="-0.4716">
        <ele>27.05</ele>
        <time>2017-02-12T10:49:07Z</time>
      </trkpt>
      <trkpt lat="44.90937" lon="-0.47168">
        <ele>27.53</ele>
        <time>2017-02-12T10:49:16Z</time>
      </trkpt>
      <trkpt lat="44.90928" lon="-0.47159">
        <ele>28.02</ele>
        <time>2017-02-12T10:49:28Z</time>
      </trkpt>
      <trkpt lat="44.90925" lon="-0.47155">
        <ele>28.02</ele>
        <time>2017-02-12T10:49:40Z</time>
      </trkpt>
      <trkpt lat="44.90913" lon="-0.47137">
        <ele>28.02</ele>
        <time>2017-02-12T10:49:55Z</time>
      </trkpt>
      <trkpt lat="44.909" lon="-0.47121">
        <ele>28.02</ele>
        <time>2017-02-12T10:50:09Z</time>
      </trkpt>
      <trkpt lat="44.90897" lon="-0.47111">
        <ele>28.02</ele>
        <time>2017-02-12T10:50:16Z</time>
      </trkpt>
      <trkpt lat="44.90898" lon="-0.47108">
        <ele>28.02</ele>
        <time>2017-02-12T10:50:18Z</time>
      </trkpt>
      <trkpt lat="44.9091" lon="-0.4709">
        <ele>28.02</ele>
        <time>2017-02-12T10:50:33Z</time>
      </trkpt>
      <trkpt lat="44.90921" lon="-0.47076">
        <ele>26.57</ele>
        <time>2017-02-12T10:50:47Z</time>
      </trkpt>
      <trkpt lat="44.90918" lon="-0.47065">
        <ele>26.09</ele>
        <time>2017-02-12T10:51:01Z</time>
      </trkpt>
      <trkpt lat="44.90902" lon="-0.47057">
        <ele>25.61</ele>
        <time>2017-02-12T10:51:17Z</time>
      </trkpt>
      <trkpt lat="44.90889" lon="-0.47054">
        <ele>25.61</ele>
        <time>2017-02-12T10:51:30Z</time>
      </trkpt>
      <trkpt lat="44.9087" lon="-0.47054">
        <ele>25.61</ele>
        <time>2017-02-12T10:51:45Z</time>
      </trkpt>
      <trkpt lat="44.90858" lon="-0.47056">
        <ele>27.05</ele>
        <time>2017-02-12T10:51:54Z</time>
      </trkpt>
      <trkpt lat="44.90857" lon="-0.47056">
        <ele>27.05</ele>
        <time>2017-02-12T10:51:55Z</time>
      </trkpt>
      <trkpt lat="44.90851" lon="-0.47063">
        <ele>27.05</ele>
        <time>2017-02-12T10:52:04Z</time>
      </trkpt>
      <trkpt lat="44.90848" lon="-0.47063">
        <ele>27.05</ele>
        <time>2017-02-12T10:52:06Z</time>
      </trkpt>
      <trkpt lat="44.90832" lon="-0.47067">
        <ele>27.05</ele>
        <time>2017-02-12T10:52:20Z</time>
      </trkpt>
      <trkpt lat="44.90828" lon="-0.47066">
        <ele>26.57</ele>
        <time>2017-02-12T10:52:24Z</time>
      </trkpt>
      <trkpt lat="44.90821" lon="-0.47074">
        <ele>26.57</ele>
        <time>2017-02-12T10:52:36Z</time>
      </trkpt>
      <trkpt lat="44.90821" lon="-0.4709">
        <ele>27.05</ele>
        <time>2017-02-12T10:52:50Z</time>
      </trkpt>
      <trkpt lat="44.90818" lon="-0.47094">
        <ele>27.05</ele>
        <time>2017-02-12T10:53:08Z</time>
      </trkpt>
      <trkpt lat="44.90816" lon="-0.47087">
        <ele>27.05</ele>
        <time>2017-02-12T10:53:22Z</time>
      </trkpt>
      <trkpt lat="44.90816" lon="-0.47086">
        <ele>27.05</ele>
        <time>2017-02-12T10:53:23Z</time>
      </trkpt>
      <trkpt lat="44.90816" lon="-0.47083">
        <ele>27.05</ele>
        <time>2017-02-12T10:53:25Z</time>
      </trkpt>
      <trkpt lat="44.90808" lon="-0.47077">
        <ele>27.05</ele>
        <time>2017-02-12T10:53:39Z</time>
      </trkpt>
      <trkpt lat="44.90807" lon="-0.47093">
        <ele>27.05</ele>
        <time>2017-02-12T10:53:52Z</time>
      </trkpt>
      <trkpt lat="44.90806" lon="-0.47101">
        <ele>27.05</ele>
        <time>2017-02-12T10:54:06Z</time>
      </trkpt>
      <trkpt lat="44.90806" lon="-0.47107">
        <ele>27.05</ele>
        <time>2017-02-12T10:54:10Z</time>
      </trkpt>
      <trkpt lat="44.90805" lon="-0.47111">
        <ele>27.05</ele>
        <time>2017-02-12T10:54:13Z</time>
      </trkpt>
      <trkpt lat="44.90803" lon="-0.4713">
        <ele>27.53</ele>
        <time>2017-02-12T10:54:26Z</time>
      </trkpt>
      <trkpt lat="44.90806" lon="-0.47145">
        <ele>28.02</ele>
        <time>2017-02-12T10:54:38Z</time>
      </trkpt>
      <trkpt lat="44.90809" lon="-0.47147">
        <ele>28.02</ele>
        <time>2017-02-12T10:54:41Z</time>
      </trkpt>
      <trkpt lat="44.90814" lon="-0.47148">
        <ele>28.5</ele>
        <time>2017-02-12T10:54:46Z</time>
      </trkpt>
      <trkpt lat="44.90827" lon="-0.47142">
        <ele>28.5</ele>
        <time>2017-02-12T10:54:59Z</time>
      </trkpt>
      <trkpt lat="44.90838" lon="-0.47139">
        <ele>28.98</ele>
        <time>2017-02-12T10:55:11Z</time>
      </trkpt>
      <trkpt lat="44.90847" lon="-0.47127">
        <ele>28.98</ele>
        <time>2017-02-12T10:55:22Z</time>
      </trkpt>
      <trkpt lat="44.90855" lon="-0.47113">
        <ele>28.98</ele>
        <time>2017-02-12T10:55:35Z</time>
      </trkpt>
      <trkpt lat="44.90857" lon="-0.47108">
        <ele>28.98</ele>
        <time>2017-02-12T10:55:50Z</time>
      </trkpt>
      <trkpt lat="44.90855" lon="-0.47109">
        <ele>28.98</ele>
        <time>2017-02-12T10:56:06Z</time>
      </trkpt>
      <trkpt lat="44.90853" lon="-0.4711">
        <ele>28.98</ele>
        <time>2017-02-12T10:56:19Z</time>
      </trkpt>
      <trkpt lat="44.90855" lon="-0.47113">
        <ele>29.46</ele>
        <time>2017-02-12T10:56:38Z</time>
      </trkpt>
      <trkpt lat="44.90857" lon="-0.47111">
        <ele>29.46</ele>
        <time>2017-02-12T10:56:57Z</time>
      </trkpt>
      <trkpt lat="44.90859" lon="-0.47113">
        <ele>29.46</ele>
        <time>2017-02-12T10:57:14Z</time>
      </trkpt>
      <trkpt lat="44.90857" lon="-0.47114">
        <ele>29.46</ele>
        <time>2017-02-12T10:57:27Z</time>
      </trkpt>
      <trkpt lat="44.90856" lon="-0.47115">
        <ele>29.46</ele>
        <time>2017-02-12T10:57:45Z</time>
      </trkpt>
      <trkpt lat="44.90855" lon="-0.47119">
        <ele>29.94</ele>
        <time>2017-02-12T10:57:59Z</time>
      </trkpt>
      <trkpt lat="44.90852" lon="-0.47123">
        <ele>30.42</ele>
        <time>2017-02-12T10:58:13Z</time>
      </trkpt>
      <trkpt lat="44.90851" lon="-0.47124">
        <ele>30.42</ele>
        <time>2017-02-12T10:58:15Z</time>
      </trkpt>
      <trkpt lat="44.90846" lon="-0.47138">
        <ele>30.42</ele>
        <time>2017-02-12T10:58:28Z</time>
      </trkpt>
      <trkpt lat="44.90848" lon="-0.47142">
        <ele>30.42</ele>
        <time>2017-02-12T10:58:31Z</time>
      </trkpt>
      <trkpt lat="44.90855" lon="-0.47156">
        <ele>30.42</ele>
        <time>2017-02-12T10:58:44Z</time>
      </trkpt>
      <trkpt lat="44.90863" lon="-0.47169">
        <ele>30.42</ele>
        <time>2017-02-12T10:58:56Z</time>
      </trkpt>
      <trkpt lat="44.90871" lon="-0.47178">
        <ele>30.42</ele>
        <time>2017-02-12T10:59:07Z</time>
      </trkpt>
      <trkpt lat="44.90872" lon="-0.47179">
        <ele>30.42</ele>
        <time>2017-02-12T10:59:08Z</time>
      </trkpt>
      <trkpt lat="44.90879" lon="-0.47197">
        <ele>30.42</ele>
        <time>2017-02-12T10:59:21Z</time>
      </trkpt>
      <trkpt lat="44.90886" lon="-0.47206">
        <ele>30.42</ele>
        <time>2017-02-12T10:59:33Z</time>
      </trkpt>
      <trkpt lat="44.90898" lon="-0.47222">
        <ele>30.42</ele>
        <time>2017-02-12T10:59:48Z</time>
      </trkpt>
      <trkpt lat="44.90909" lon="-0.47236">
        <ele>30.42</ele>
        <time>2017-02-12T11:00:02Z</time>
      </trkpt>
      <trkpt lat="44.90913" lon="-0.47241">
        <ele>30.42</ele>
        <time>2017-02-12T11:00:07Z</time>
      </trkpt>
      <trkpt lat="44.90922" lon="-0.47252">
        <ele>30.42</ele>
        <time>2017-02-12T11:00:18Z</time>
      </trkpt>
      <trkpt lat="44.90924" lon="-0.47254">
        <ele>30.42</ele>
        <time>2017-02-12T11:00:20Z</time>
      </trkpt>
      <trkpt lat="44.90936" lon="-0.47268">
        <ele>30.42</ele>
        <time>2017-02-12T11:00:33Z</time>
      </trkpt>
      <trkpt lat="44.90948" lon="-0.4728">
        <ele>28.98</ele>
        <time>2017-02-12T11:00:46Z</time>
      </trkpt>
      <trkpt lat="44.90961" lon="-0.47293">
        <ele>27.05</ele>
        <time>2017-02-12T11:01:01Z</time>
      </trkpt>
      <trkpt lat="44.90974" lon="-0.47303">
        <ele>25.13</ele>
        <time>2017-02-12T11:01:14Z</time>
      </trkpt>
      <trkpt lat="44.90987" lon="-0.47313">
        <ele>24.65</ele>
        <time>2017-02-12T11:01:29Z</time>
      </trkpt>
      <trkpt lat="44.90996" lon="-0.47311">
        <ele>23.69</ele>
        <time>2017-02-12T11:01:38Z</time>
      </trkpt>
      <trkpt lat="44.91004" lon="-0.47297">
        <ele>22.73</ele>
        <time>2017-02-12T11:01:52Z</time>
      </trkpt>
      <trkpt lat="44.91006" lon="-0.47293">
        <ele>22.73</ele>
        <time>2017-02-12T11:02:06Z</time>
      </trkpt>
      <trkpt lat="44.91008" lon="-0.47295">
        <ele>22.73</ele>
        <time>2017-02-12T11:02:24Z</time>
      </trkpt>
      <trkpt lat="44.91008" lon="-0.47298">
        <ele>22.73</ele>
        <time>2017-02-12T11:02:48Z</time>
      </trkpt>
      <trkpt lat="44.91009" lon="-0.47294">
        <ele>22.73</ele>
        <time>2017-02-12T11:03:06Z</time>
      </trkpt>
      <trkpt lat="44.91008" lon="-0.47296">
        <ele>23.21</ele>
        <time>2017-02-12T11:03:19Z</time>
      </trkpt>
      <trkpt lat="44.91011" lon="-0.47296">
        <ele>23.21</ele>
        <time>2017-02-12T11:04:01Z</time>
      </trkpt>
      <trkpt lat="44.91009" lon="-0.47292">
        <ele>23.21</ele>
        <time>2017-02-12T11:04:20Z</time>
      </trkpt>
      <trkpt lat="44.91009" lon="-0.47291">
        <ele>24.65</ele>
        <time>2017-02-12T11:04:28Z</time>
      </trkpt>
      <trkpt lat="44.91009" lon="-0.47293">
        <ele>24.65</ele>
        <time>2017-02-12T11:04:36Z</time>
      </trkpt>
    </trkseg>
  </trk>
</gpx>